<?xml version="1.0" encoding="UTF-8" standalone="no" ?>
<gpx xmlns="http://www.topografix.com/GPX/1/1" xmlns:xsi="http://www.w3.org/2001/XMLSchema-instance" xsi:schemaLocation="http://www.topografix.com/GPX/1/1 http://www.topografix.com/GPX/1/1/gpx.xsd" version="1.1" creator="VisuGPX - https://www.visugpx.com">
  <metadata>
    <name>Circuit au départ d'Aussac</name>
  </metadata>
  <wpt lat="44.1183" lon="1.40137">
    <ele>188</ele>
    <name><![CDATA[Parking à l'arrière de l'église d'Aussac]]></name>
  </wpt>
  <wpt lat="44.11674" lon="1.39884">
    <ele>184</ele>
    <name><![CDATA[Carrefour de la boucle]]></name>
  </wpt>
  <wpt lat="44.11393" lon="1.39876">
    <ele>190</ele>
    <name><![CDATA[Route (sans issue) de Battut]]></name>
  </wpt>
  <wpt lat="44.10448" lon="1.40186">
    <ele>109</ele>
    <name><![CDATA[Ruisseau ]]></name>
  </wpt>
  <wpt lat="44.10703" lon="1.39053">
    <ele>175</ele>
    <name><![CDATA[Bois]]></name>
  </wpt>
  <wpt lat="44.10701" lon="1.38813">
    <ele>186</ele>
    <name><![CDATA[Route à droite au hameau de Bourdalès]]></name>
  </wpt>
  <wpt lat="44.10348" lon="1.37089">
    <ele>116</ele>
    <name><![CDATA[Route au hameau de Gasc]]></name>
  </wpt>
  <wpt lat="44.10769" lon="1.36883">
    <ele>193</ele>
    <name><![CDATA[Intersection 4 chemins]]></name>
  </wpt>
  <wpt lat="44.10906" lon="1.37173">
    <ele>187</ele>
    <name><![CDATA[Halte pique-nique]]></name>
  </wpt>
  <wpt lat="44.10927" lon="1.3719">
    <ele>184</ele>
    <name><![CDATA[Halte rando]]></name>
  </wpt>
  <wpt lat="44.11097" lon="1.37893">
    <ele>188</ele>
    <name><![CDATA[Bifurcation avant la D69]]></name>
  </wpt>
  <wpt lat="44.11766" lon="1.37595">
    <ele>144</ele>
    <name><![CDATA[Étang]]></name>
  </wpt>
  <wpt lat="44.11931" lon="1.37477">
    <ele>130</ele>
    <name><![CDATA[Droite vers maison]]></name>
  </wpt>
  <wpt lat="44.12445" lon="1.37901">
    <ele>147</ele>
    <name><![CDATA[Mare]]></name>
  </wpt>
  <wpt lat="44.12586" lon="1.38197">
    <ele>172</ele>
    <name><![CDATA[Ferme]]></name>
  </wpt>
  <wpt lat="44.12582" lon="1.38272">
    <ele>176</ele>
    <name><![CDATA[Ferme]]></name>
  </wpt>
  <wpt lat="44.1238" lon="1.38876">
    <ele>195</ele>
    <name><![CDATA[Tournis sou sentier // à la route]]></name>
  </wpt>
  <wpt lat="44.12124" lon="1.39591">
    <ele>148</ele>
    <name><![CDATA[À droite vers l'étangg]]></name>
  </wpt>
  <wpt lat="44.12072" lon="1.39579">
    <ele>144</ele>
    <name><![CDATA[Étang à droite puis après prendre chemin gauche]]></name>
  </wpt>
  <wpt lat="44.11972" lon="1.3956">
    <ele>155</ele>
    <name><![CDATA[Vers le bois]]></name>
  </wpt>
  <wpt lat="44.11825" lon="1.40131">
    <ele>187</ele>
    <name><![CDATA[Parking à l'arrière de l'église d'Aussac]]></name>
  </wpt>
  <trk>
    <name><![CDATA[Circuit au départ d'Aussac]]></name>
    <trkseg>
      <trkpt lat="44.1183" lon="1.40137">
        <ele>188</ele>
        <time>2019-04-19T15:37:53+02:00</time>
      </trkpt>
      <trkpt lat="44.11827" lon="1.40124">
        <ele>188</ele>
        <time>2019-04-19T15:37:57+02:00</time>
      </trkpt>
      <trkpt lat="44.11821" lon="1.40113">
        <ele>187</ele>
        <time>2019-04-19T15:38:01+02:00</time>
      </trkpt>
      <trkpt lat="44.11814" lon="1.40102">
        <ele>187</ele>
        <time>2019-04-19T15:38:05+02:00</time>
      </trkpt>
      <trkpt lat="44.11804" lon="1.40095">
        <ele>185</ele>
        <time>2019-04-19T15:38:09+02:00</time>
      </trkpt>
      <trkpt lat="44.11793" lon="1.401">
        <ele>184</ele>
      </trkpt>
      <trkpt lat="44.11788" lon="1.40085">
        <ele>183</ele>
      </trkpt>
      <trkpt lat="44.1178" lon="1.40056">
        <ele>184</ele>
        <time>2019-04-19T15:38:18+02:00</time>
      </trkpt>
      <trkpt lat="44.11776" lon="1.40043">
        <ele>184</ele>
        <time>2019-04-19T15:38:20+02:00</time>
      </trkpt>
      <trkpt lat="44.1177" lon="1.4003">
        <ele>184</ele>
        <time>2019-04-19T15:38:22+02:00</time>
      </trkpt>
      <trkpt lat="44.11758" lon="1.40006">
        <ele>185</ele>
        <time>2019-04-19T15:38:26+02:00</time>
      </trkpt>
      <trkpt lat="44.1175" lon="1.39994">
        <ele>185</ele>
        <time>2019-04-19T15:38:28+02:00</time>
      </trkpt>
      <trkpt lat="44.11741" lon="1.39983">
        <ele>184</ele>
        <time>2019-04-19T15:38:30+02:00</time>
      </trkpt>
      <trkpt lat="44.11732" lon="1.39972">
        <ele>183</ele>
        <time>2019-04-19T15:38:32+02:00</time>
      </trkpt>
      <trkpt lat="44.11724" lon="1.39961">
        <ele>183</ele>
        <time>2019-04-19T15:38:34+02:00</time>
      </trkpt>
      <trkpt lat="44.11716" lon="1.39948">
        <ele>183</ele>
        <time>2019-04-19T15:38:36+02:00</time>
      </trkpt>
      <trkpt lat="44.11703" lon="1.39921">
        <ele>184</ele>
        <time>2019-04-19T15:38:40+02:00</time>
      </trkpt>
      <trkpt lat="44.11697" lon="1.39909">
        <ele>184</ele>
        <time>2019-04-19T15:38:42+02:00</time>
      </trkpt>
      <trkpt lat="44.11691" lon="1.39898">
        <ele>184</ele>
        <time>2019-04-19T15:38:44+02:00</time>
      </trkpt>
      <trkpt lat="44.11683" lon="1.3989">
        <ele>184</ele>
        <time>2019-04-19T15:38:46+02:00</time>
      </trkpt>
      <trkpt lat="44.11674" lon="1.39884">
        <ele>184</ele>
        <time>2019-04-19T15:38:48+02:00</time>
      </trkpt>
      <trkpt lat="44.11656" lon="1.39876">
        <ele>186</ele>
        <time>2019-04-19T15:38:52+02:00</time>
      </trkpt>
      <trkpt lat="44.11644" lon="1.39872">
        <ele>187</ele>
        <time>2019-04-19T15:38:55+02:00</time>
      </trkpt>
      <trkpt lat="44.11633" lon="1.39868">
        <ele>188</ele>
        <time>2019-04-19T15:38:58+02:00</time>
      </trkpt>
      <trkpt lat="44.11623" lon="1.39865">
        <ele>189</ele>
        <time>2019-04-19T15:39:02+02:00</time>
      </trkpt>
      <trkpt lat="44.11612" lon="1.39862">
        <ele>190</ele>
        <time>2019-04-19T15:39:06+02:00</time>
      </trkpt>
      <trkpt lat="44.11603" lon="1.39859">
        <ele>190</ele>
        <time>2019-04-19T15:39:09+02:00</time>
      </trkpt>
      <trkpt lat="44.11594" lon="1.39854">
        <ele>192</ele>
        <time>2019-04-19T15:39:12+02:00</time>
      </trkpt>
      <trkpt lat="44.11585" lon="1.39851">
        <ele>193</ele>
        <time>2019-04-19T15:39:15+02:00</time>
      </trkpt>
      <trkpt lat="44.11574" lon="1.39847">
        <ele>193</ele>
        <time>2019-04-19T15:39:19+02:00</time>
      </trkpt>
      <trkpt lat="44.1156" lon="1.39843">
        <ele>192</ele>
      </trkpt>
      <trkpt lat="44.11548" lon="1.39827">
        <ele>192</ele>
        <time>2019-04-19T15:39:30+02:00</time>
      </trkpt>
      <trkpt lat="44.11539" lon="1.39826">
        <ele>191</ele>
        <time>2019-04-19T15:39:33+02:00</time>
      </trkpt>
      <trkpt lat="44.11528" lon="1.39826">
        <ele>191</ele>
        <time>2019-04-19T15:39:36+02:00</time>
      </trkpt>
      <trkpt lat="44.11515" lon="1.39826">
        <ele>190</ele>
        <time>2019-04-19T15:39:39+02:00</time>
      </trkpt>
      <trkpt lat="44.11502" lon="1.39826">
        <ele>189</ele>
        <time>2019-04-19T15:39:42+02:00</time>
      </trkpt>
      <trkpt lat="44.11492" lon="1.39827">
        <ele>189</ele>
        <time>2019-04-19T15:39:44+02:00</time>
      </trkpt>
      <trkpt lat="44.11482" lon="1.3983">
        <ele>189</ele>
        <time>2019-04-19T15:39:46+02:00</time>
      </trkpt>
      <trkpt lat="44.11472" lon="1.39833">
        <ele>190</ele>
        <time>2019-04-19T15:39:48+02:00</time>
      </trkpt>
      <trkpt lat="44.11462" lon="1.39835">
        <ele>189</ele>
        <time>2019-04-19T15:39:50+02:00</time>
      </trkpt>
      <trkpt lat="44.1145" lon="1.39839">
        <ele>189</ele>
        <time>2019-04-19T15:39:53+02:00</time>
      </trkpt>
      <trkpt lat="44.11439" lon="1.39843">
        <ele>189</ele>
        <time>2019-04-19T15:39:56+02:00</time>
      </trkpt>
      <trkpt lat="44.1143" lon="1.39848">
        <ele>189</ele>
        <time>2019-04-19T15:39:59+02:00</time>
      </trkpt>
      <trkpt lat="44.11421" lon="1.39855">
        <ele>189</ele>
        <time>2019-04-19T15:40:02+02:00</time>
      </trkpt>
      <trkpt lat="44.11412" lon="1.39862">
        <ele>189</ele>
        <time>2019-04-19T15:40:05+02:00</time>
      </trkpt>
      <trkpt lat="44.11403" lon="1.39872">
        <ele>189</ele>
        <time>2019-04-19T15:40:09+02:00</time>
      </trkpt>
      <trkpt lat="44.11393" lon="1.39876">
        <ele>190</ele>
        <time>2019-04-19T15:40:13+02:00</time>
      </trkpt>
      <trkpt lat="44.11384" lon="1.39874">
        <ele>190</ele>
        <time>2019-04-19T15:40:16+02:00</time>
      </trkpt>
      <trkpt lat="44.11374" lon="1.39874">
        <ele>191</ele>
        <time>2019-04-19T15:40:19+02:00</time>
      </trkpt>
      <trkpt lat="44.11363" lon="1.39873">
        <ele>191</ele>
        <time>2019-04-19T15:40:22+02:00</time>
      </trkpt>
      <trkpt lat="44.11354" lon="1.39875">
        <ele>192</ele>
        <time>2019-04-19T15:40:25+02:00</time>
      </trkpt>
      <trkpt lat="44.11343" lon="1.39875">
        <ele>193</ele>
        <time>2019-04-19T15:40:29+02:00</time>
      </trkpt>
      <trkpt lat="44.11334" lon="1.39874">
        <ele>193</ele>
        <time>2019-04-19T15:40:32+02:00</time>
      </trkpt>
      <trkpt lat="44.11325" lon="1.39868">
        <ele>192</ele>
        <time>2019-04-19T15:40:35+02:00</time>
      </trkpt>
      <trkpt lat="44.11316" lon="1.3986">
        <ele>191</ele>
        <time>2019-04-19T15:40:38+02:00</time>
      </trkpt>
      <trkpt lat="44.11308" lon="1.39849">
        <ele>191</ele>
        <time>2019-04-19T15:40:41+02:00</time>
      </trkpt>
      <trkpt lat="44.113" lon="1.39839">
        <ele>190</ele>
        <time>2019-04-19T15:40:44+02:00</time>
      </trkpt>
      <trkpt lat="44.1129" lon="1.39829">
        <ele>189</ele>
        <time>2019-04-19T15:40:47+02:00</time>
      </trkpt>
      <trkpt lat="44.11281" lon="1.3982">
        <ele>189</ele>
        <time>2019-04-19T15:40:50+02:00</time>
      </trkpt>
      <trkpt lat="44.11271" lon="1.39811">
        <ele>189</ele>
        <time>2019-04-19T15:40:53+02:00</time>
      </trkpt>
      <trkpt lat="44.1126" lon="1.39803">
        <ele>188</ele>
        <time>2019-04-19T15:40:56+02:00</time>
      </trkpt>
      <trkpt lat="44.11249" lon="1.39793">
        <ele>188</ele>
        <time>2019-04-19T15:40:59+02:00</time>
      </trkpt>
      <trkpt lat="44.11243" lon="1.39783">
        <ele>188</ele>
        <time>2019-04-19T15:41:01+02:00</time>
      </trkpt>
      <trkpt lat="44.11237" lon="1.39772">
        <ele>187</ele>
        <time>2019-04-19T15:41:03+02:00</time>
      </trkpt>
      <trkpt lat="44.11229" lon="1.3976">
        <ele>187</ele>
        <time>2019-04-19T15:41:05+02:00</time>
      </trkpt>
      <trkpt lat="44.1122" lon="1.39749">
        <ele>186</ele>
        <time>2019-04-19T15:41:07+02:00</time>
      </trkpt>
      <trkpt lat="44.11207" lon="1.3974">
        <ele>184</ele>
        <time>2019-04-19T15:41:09+02:00</time>
      </trkpt>
      <trkpt lat="44.11195" lon="1.39733">
        <ele>183</ele>
        <time>2019-04-19T15:41:11+02:00</time>
      </trkpt>
      <trkpt lat="44.11182" lon="1.39728">
        <ele>181</ele>
        <time>2019-04-19T15:41:13+02:00</time>
      </trkpt>
      <trkpt lat="44.11169" lon="1.39725">
        <ele>180</ele>
        <time>2019-04-19T15:41:15+02:00</time>
      </trkpt>
      <trkpt lat="44.11154" lon="1.39725">
        <ele>178</ele>
        <time>2019-04-19T15:41:17+02:00</time>
      </trkpt>
      <trkpt lat="44.11138" lon="1.39727">
        <ele>176</ele>
        <time>2019-04-19T15:41:19+02:00</time>
      </trkpt>
      <trkpt lat="44.11122" lon="1.39732">
        <ele>175</ele>
        <time>2019-04-19T15:41:21+02:00</time>
      </trkpt>
      <trkpt lat="44.11105" lon="1.39741">
        <ele>173</ele>
        <time>2019-04-19T15:41:23+02:00</time>
      </trkpt>
      <trkpt lat="44.11096" lon="1.39746">
        <ele>173</ele>
        <time>2019-04-19T15:41:24+02:00</time>
      </trkpt>
      <trkpt lat="44.11087" lon="1.39751">
        <ele>172</ele>
        <time>2019-04-19T15:41:25+02:00</time>
      </trkpt>
      <trkpt lat="44.11079" lon="1.39756">
        <ele>171</ele>
        <time>2019-04-19T15:41:26+02:00</time>
      </trkpt>
      <trkpt lat="44.1107" lon="1.39761">
        <ele>169</ele>
        <time>2019-04-19T15:41:27+02:00</time>
      </trkpt>
      <trkpt lat="44.11054" lon="1.39769">
        <ele>166</ele>
        <time>2019-04-19T15:41:29+02:00</time>
      </trkpt>
      <trkpt lat="44.11041" lon="1.39774">
        <ele>163</ele>
        <time>2019-04-19T15:41:31+02:00</time>
      </trkpt>
      <trkpt lat="44.11027" lon="1.39776">
        <ele>161</ele>
        <time>2019-04-19T15:41:33+02:00</time>
      </trkpt>
      <trkpt lat="44.11013" lon="1.39775">
        <ele>159</ele>
        <time>2019-04-19T15:41:35+02:00</time>
      </trkpt>
      <trkpt lat="44.11" lon="1.39773">
        <ele>158</ele>
        <time>2019-04-19T15:41:37+02:00</time>
      </trkpt>
      <trkpt lat="44.10985" lon="1.3977">
        <ele>157</ele>
        <time>2019-04-19T15:41:39+02:00</time>
      </trkpt>
      <trkpt lat="44.10971" lon="1.39768">
        <ele>156</ele>
        <time>2019-04-19T15:41:41+02:00</time>
      </trkpt>
      <trkpt lat="44.10958" lon="1.39769">
        <ele>154</ele>
        <time>2019-04-19T15:41:43+02:00</time>
      </trkpt>
      <trkpt lat="44.10946" lon="1.39772">
        <ele>153</ele>
        <time>2019-04-19T15:41:45+02:00</time>
      </trkpt>
      <trkpt lat="44.10935" lon="1.39779">
        <ele>152</ele>
        <time>2019-04-19T15:41:47+02:00</time>
      </trkpt>
      <trkpt lat="44.10925" lon="1.39789">
        <ele>150</ele>
        <time>2019-04-19T15:41:50+02:00</time>
      </trkpt>
      <trkpt lat="44.10915" lon="1.398">
        <ele>149</ele>
        <time>2019-04-19T15:41:53+02:00</time>
      </trkpt>
      <trkpt lat="44.10908" lon="1.39809">
        <ele>148</ele>
        <time>2019-04-19T15:41:55+02:00</time>
      </trkpt>
      <trkpt lat="44.109" lon="1.39817">
        <ele>147</ele>
        <time>2019-04-19T15:41:57+02:00</time>
      </trkpt>
      <trkpt lat="44.10892" lon="1.39824">
        <ele>146</ele>
        <time>2019-04-19T15:41:59+02:00</time>
      </trkpt>
      <trkpt lat="44.10883" lon="1.39829">
        <ele>145</ele>
        <time>2019-04-19T15:42:01+02:00</time>
      </trkpt>
      <trkpt lat="44.10872" lon="1.39834">
        <ele>144</ele>
        <time>2019-04-19T15:42:04+02:00</time>
      </trkpt>
      <trkpt lat="44.1086" lon="1.39838">
        <ele>143</ele>
        <time>2019-04-19T15:42:07+02:00</time>
      </trkpt>
      <trkpt lat="44.10849" lon="1.39837">
        <ele>142</ele>
        <time>2019-04-19T15:42:10+02:00</time>
      </trkpt>
      <trkpt lat="44.10841" lon="1.3983">
        <ele>141</ele>
        <time>2019-04-19T15:42:13+02:00</time>
      </trkpt>
      <trkpt lat="44.10831" lon="1.39825">
        <ele>140</ele>
        <time>2019-04-19T15:42:16+02:00</time>
      </trkpt>
      <trkpt lat="44.1082" lon="1.39818">
        <ele>137</ele>
        <time>2019-04-19T15:42:19+02:00</time>
      </trkpt>
      <trkpt lat="44.10808" lon="1.39811">
        <ele>135</ele>
        <time>2019-04-19T15:42:22+02:00</time>
      </trkpt>
      <trkpt lat="44.108" lon="1.39803">
        <ele>133</ele>
        <time>2019-04-19T15:42:26+02:00</time>
      </trkpt>
      <trkpt lat="44.10791" lon="1.39797">
        <ele>131</ele>
        <time>2019-04-19T15:42:31+02:00</time>
      </trkpt>
      <trkpt lat="44.10781" lon="1.39793">
        <ele>129</ele>
        <time>2019-04-19T15:42:34+02:00</time>
      </trkpt>
      <trkpt lat="44.10771" lon="1.39786">
        <ele>127</ele>
        <time>2019-04-19T15:42:38+02:00</time>
      </trkpt>
      <trkpt lat="44.10761" lon="1.39781">
        <ele>125</ele>
        <time>2019-04-19T15:42:41+02:00</time>
      </trkpt>
      <trkpt lat="44.10751" lon="1.3978">
        <ele>123</ele>
        <time>2019-04-19T15:42:43+02:00</time>
      </trkpt>
      <trkpt lat="44.1074" lon="1.39779">
        <ele>122</ele>
        <time>2019-04-19T15:42:45+02:00</time>
      </trkpt>
      <trkpt lat="44.1073" lon="1.39778">
        <ele>121</ele>
        <time>2019-04-19T15:42:47+02:00</time>
      </trkpt>
      <trkpt lat="44.10719" lon="1.39781">
        <ele>121</ele>
        <time>2019-04-19T15:42:49+02:00</time>
      </trkpt>
      <trkpt lat="44.1071" lon="1.39788">
        <ele>120</ele>
        <time>2019-04-19T15:42:51+02:00</time>
      </trkpt>
      <trkpt lat="44.10703" lon="1.39795">
        <ele>120</ele>
        <time>2019-04-19T15:42:53+02:00</time>
      </trkpt>
      <trkpt lat="44.10692" lon="1.39805">
        <ele>119</ele>
        <time>2019-04-19T15:42:56+02:00</time>
      </trkpt>
      <trkpt lat="44.10685" lon="1.39815">
        <ele>118</ele>
        <time>2019-04-19T15:42:58+02:00</time>
      </trkpt>
      <trkpt lat="44.1068" lon="1.39827">
        <ele>118</ele>
        <time>2019-04-19T15:43:00+02:00</time>
      </trkpt>
      <trkpt lat="44.10675" lon="1.39839">
        <ele>118</ele>
        <time>2019-04-19T15:43:02+02:00</time>
      </trkpt>
      <trkpt lat="44.10671" lon="1.39853">
        <ele>117</ele>
        <time>2019-04-19T15:43:04+02:00</time>
      </trkpt>
      <trkpt lat="44.10666" lon="1.39868">
        <ele>117</ele>
        <time>2019-04-19T15:43:06+02:00</time>
      </trkpt>
      <trkpt lat="44.10661" lon="1.3988">
        <ele>117</ele>
        <time>2019-04-19T15:43:08+02:00</time>
      </trkpt>
      <trkpt lat="44.10655" lon="1.39891">
        <ele>116</ele>
        <time>2019-04-19T15:43:10+02:00</time>
      </trkpt>
      <trkpt lat="44.10648" lon="1.399">
        <ele>116</ele>
        <time>2019-04-19T15:43:12+02:00</time>
      </trkpt>
      <trkpt lat="44.10638" lon="1.39912">
        <ele>115</ele>
        <time>2019-04-19T15:43:15+02:00</time>
      </trkpt>
      <trkpt lat="44.10632" lon="1.3992">
        <ele>115</ele>
        <time>2019-04-19T15:43:17+02:00</time>
      </trkpt>
      <trkpt lat="44.10623" lon="1.39931">
        <ele>114</ele>
        <time>2019-04-19T15:43:19+02:00</time>
      </trkpt>
      <trkpt lat="44.10613" lon="1.39942">
        <ele>113</ele>
        <time>2019-04-19T15:43:21+02:00</time>
      </trkpt>
      <trkpt lat="44.10602" lon="1.39955">
        <ele>112</ele>
        <time>2019-04-19T15:43:23+02:00</time>
      </trkpt>
      <trkpt lat="44.1059" lon="1.39969">
        <ele>111</ele>
        <time>2019-04-19T15:43:25+02:00</time>
      </trkpt>
      <trkpt lat="44.10579" lon="1.39985">
        <ele>110</ele>
        <time>2019-04-19T15:43:27+02:00</time>
      </trkpt>
      <trkpt lat="44.10567" lon="1.39999">
        <ele>111</ele>
        <time>2019-04-19T15:43:29+02:00</time>
      </trkpt>
      <trkpt lat="44.10556" lon="1.40012">
        <ele>112</ele>
        <time>2019-04-19T15:43:31+02:00</time>
      </trkpt>
      <trkpt lat="44.10545" lon="1.40024">
        <ele>112</ele>
        <time>2019-04-19T15:43:33+02:00</time>
      </trkpt>
      <trkpt lat="44.10535" lon="1.40035">
        <ele>113</ele>
        <time>2019-04-19T15:43:35+02:00</time>
      </trkpt>
      <trkpt lat="44.10526" lon="1.40044">
        <ele>112</ele>
        <time>2019-04-19T15:43:37+02:00</time>
      </trkpt>
      <trkpt lat="44.10517" lon="1.40056">
        <ele>112</ele>
        <time>2019-04-19T15:43:40+02:00</time>
      </trkpt>
      <trkpt lat="44.10511" lon="1.40069">
        <ele>111</ele>
        <time>2019-04-19T15:43:44+02:00</time>
      </trkpt>
      <trkpt lat="44.10507" lon="1.40084">
        <ele>111</ele>
        <time>2019-04-19T15:43:48+02:00</time>
      </trkpt>
      <trkpt lat="44.10501" lon="1.40097">
        <ele>111</ele>
        <time>2019-04-19T15:43:51+02:00</time>
      </trkpt>
      <trkpt lat="44.10492" lon="1.40111">
        <ele>111</ele>
        <time>2019-04-19T15:43:54+02:00</time>
      </trkpt>
      <trkpt lat="44.10483" lon="1.40124">
        <ele>111</ele>
        <time>2019-04-19T15:43:57+02:00</time>
      </trkpt>
      <trkpt lat="44.10474" lon="1.40139">
        <ele>111</ele>
        <time>2019-04-19T15:44:00+02:00</time>
      </trkpt>
      <trkpt lat="44.10468" lon="1.40149">
        <ele>111</ele>
        <time>2019-04-19T15:44:02+02:00</time>
      </trkpt>
      <trkpt lat="44.10462" lon="1.4016">
        <ele>111</ele>
        <time>2019-04-19T15:44:04+02:00</time>
      </trkpt>
      <trkpt lat="44.10455" lon="1.40175">
        <ele>110</ele>
        <time>2019-04-19T15:44:07+02:00</time>
      </trkpt>
      <trkpt lat="44.10448" lon="1.40186">
        <ele>109</ele>
        <time>2019-04-19T15:44:10+02:00</time>
      </trkpt>
      <trkpt lat="44.10441" lon="1.40178">
        <ele>108</ele>
        <time>2019-04-19T15:44:52+02:00</time>
      </trkpt>
      <trkpt lat="44.10437" lon="1.40166">
        <ele>108</ele>
        <time>2019-04-19T15:44:58+02:00</time>
      </trkpt>
      <trkpt lat="44.10436" lon="1.40153">
        <ele>108</ele>
        <time>2019-04-19T15:45:04+02:00</time>
      </trkpt>
      <trkpt lat="44.10435" lon="1.4014">
        <ele>108</ele>
        <time>2019-04-19T15:45:10+02:00</time>
      </trkpt>
      <trkpt lat="44.10434" lon="1.40127">
        <ele>108</ele>
        <time>2019-04-19T15:45:16+02:00</time>
      </trkpt>
      <trkpt lat="44.10431" lon="1.40113">
        <ele>109</ele>
        <time>2019-04-19T15:45:23+02:00</time>
      </trkpt>
      <trkpt lat="44.10429" lon="1.401">
        <ele>109</ele>
        <time>2019-04-19T15:45:29+02:00</time>
      </trkpt>
      <trkpt lat="44.10429" lon="1.40086">
        <ele>109</ele>
        <time>2019-04-19T15:45:36+02:00</time>
      </trkpt>
      <trkpt lat="44.10428" lon="1.40074">
        <ele>110</ele>
        <time>2019-04-19T15:45:42+02:00</time>
      </trkpt>
      <trkpt lat="44.10429" lon="1.4006">
        <ele>111</ele>
        <time>2019-04-19T15:45:49+02:00</time>
      </trkpt>
      <trkpt lat="44.10431" lon="1.40046">
        <ele>112</ele>
        <time>2019-04-19T15:45:56+02:00</time>
      </trkpt>
      <trkpt lat="44.10434" lon="1.40033">
        <ele>112</ele>
        <time>2019-04-19T15:46:03+02:00</time>
      </trkpt>
      <trkpt lat="44.10438" lon="1.40021">
        <ele>113</ele>
        <time>2019-04-19T15:46:10+02:00</time>
      </trkpt>
      <trkpt lat="44.10442" lon="1.40009">
        <ele>114</ele>
        <time>2019-04-19T15:46:16+02:00</time>
      </trkpt>
      <trkpt lat="44.10446" lon="1.39995">
        <ele>115</ele>
        <time>2019-04-19T15:46:22+02:00</time>
      </trkpt>
      <trkpt lat="44.1045" lon="1.39983">
        <ele>116</ele>
        <time>2019-04-19T15:46:28+02:00</time>
      </trkpt>
      <trkpt lat="44.10453" lon="1.3997">
        <ele>117</ele>
        <time>2019-04-19T15:46:34+02:00</time>
      </trkpt>
      <trkpt lat="44.10456" lon="1.39957">
        <ele>118</ele>
        <time>2019-04-19T15:46:40+02:00</time>
      </trkpt>
      <trkpt lat="44.1046" lon="1.39944">
        <ele>119</ele>
        <time>2019-04-19T15:46:46+02:00</time>
      </trkpt>
      <trkpt lat="44.10463" lon="1.39931">
        <ele>120</ele>
        <time>2019-04-19T15:46:51+02:00</time>
      </trkpt>
      <trkpt lat="44.10467" lon="1.39919">
        <ele>120</ele>
        <time>2019-04-19T15:46:55+02:00</time>
      </trkpt>
      <trkpt lat="44.10471" lon="1.39905">
        <ele>121</ele>
        <time>2019-04-19T15:47:00+02:00</time>
      </trkpt>
      <trkpt lat="44.10475" lon="1.39892">
        <ele>121</ele>
        <time>2019-04-19T15:47:05+02:00</time>
      </trkpt>
      <trkpt lat="44.10478" lon="1.39879">
        <ele>122</ele>
        <time>2019-04-19T15:47:09+02:00</time>
      </trkpt>
      <trkpt lat="44.10481" lon="1.39867">
        <ele>122</ele>
        <time>2019-04-19T15:47:13+02:00</time>
      </trkpt>
      <trkpt lat="44.10486" lon="1.39852">
        <ele>123</ele>
        <time>2019-04-19T15:47:18+02:00</time>
      </trkpt>
      <trkpt lat="44.1049" lon="1.39839">
        <ele>123</ele>
        <time>2019-04-19T15:47:22+02:00</time>
      </trkpt>
      <trkpt lat="44.10494" lon="1.39826">
        <ele>123</ele>
        <time>2019-04-19T15:47:27+02:00</time>
      </trkpt>
      <trkpt lat="44.10498" lon="1.39814">
        <ele>123</ele>
        <time>2019-04-19T15:47:31+02:00</time>
      </trkpt>
      <trkpt lat="44.10502" lon="1.39802">
        <ele>124</ele>
        <time>2019-04-19T15:47:35+02:00</time>
      </trkpt>
      <trkpt lat="44.10506" lon="1.39788">
        <ele>125</ele>
        <time>2019-04-19T15:47:40+02:00</time>
      </trkpt>
      <trkpt lat="44.1051" lon="1.39773">
        <ele>125</ele>
        <time>2019-04-19T15:47:45+02:00</time>
      </trkpt>
      <trkpt lat="44.10512" lon="1.39761">
        <ele>126</ele>
        <time>2019-04-19T15:47:49+02:00</time>
      </trkpt>
      <trkpt lat="44.10515" lon="1.39747">
        <ele>127</ele>
        <time>2019-04-19T15:47:54+02:00</time>
      </trkpt>
      <trkpt lat="44.1052" lon="1.39735">
        <ele>127</ele>
        <time>2019-04-19T15:47:59+02:00</time>
      </trkpt>
      <trkpt lat="44.10525" lon="1.39722">
        <ele>128</ele>
        <time>2019-04-19T15:48:04+02:00</time>
      </trkpt>
      <trkpt lat="44.10529" lon="1.39709">
        <ele>129</ele>
        <time>2019-04-19T15:48:09+02:00</time>
      </trkpt>
      <trkpt lat="44.10533" lon="1.39696">
        <ele>130</ele>
        <time>2019-04-19T15:48:14+02:00</time>
      </trkpt>
      <trkpt lat="44.10538" lon="1.39684">
        <ele>131</ele>
        <time>2019-04-19T15:48:19+02:00</time>
      </trkpt>
      <trkpt lat="44.1054" lon="1.39671">
        <ele>132</ele>
        <time>2019-04-19T15:48:24+02:00</time>
      </trkpt>
      <trkpt lat="44.10542" lon="1.39659">
        <ele>133</ele>
        <time>2019-04-19T15:48:29+02:00</time>
      </trkpt>
      <trkpt lat="44.10544" lon="1.39645">
        <ele>134</ele>
        <time>2019-04-19T15:48:35+02:00</time>
      </trkpt>
      <trkpt lat="44.10546" lon="1.3963">
        <ele>135</ele>
        <time>2019-04-19T15:48:41+02:00</time>
      </trkpt>
      <trkpt lat="44.10547" lon="1.39617">
        <ele>136</ele>
        <time>2019-04-19T15:48:47+02:00</time>
      </trkpt>
      <trkpt lat="44.10549" lon="1.39604">
        <ele>137</ele>
        <time>2019-04-19T15:48:53+02:00</time>
      </trkpt>
      <trkpt lat="44.10552" lon="1.3959">
        <ele>138</ele>
        <time>2019-04-19T15:48:59+02:00</time>
      </trkpt>
      <trkpt lat="44.10555" lon="1.39578">
        <ele>140</ele>
        <time>2019-04-19T15:49:04+02:00</time>
      </trkpt>
      <trkpt lat="44.1056" lon="1.39566">
        <ele>141</ele>
        <time>2019-04-19T15:49:10+02:00</time>
      </trkpt>
      <trkpt lat="44.10567" lon="1.39555">
        <ele>142</ele>
        <time>2019-04-19T15:49:16+02:00</time>
      </trkpt>
      <trkpt lat="44.10574" lon="1.39546">
        <ele>143</ele>
        <time>2019-04-19T15:49:21+02:00</time>
      </trkpt>
      <trkpt lat="44.10582" lon="1.39536">
        <ele>144</ele>
        <time>2019-04-19T15:49:26+02:00</time>
      </trkpt>
      <trkpt lat="44.1059" lon="1.39527">
        <ele>144</ele>
        <time>2019-04-19T15:49:31+02:00</time>
      </trkpt>
      <trkpt lat="44.10597" lon="1.39518">
        <ele>144</ele>
        <time>2019-04-19T15:49:36+02:00</time>
      </trkpt>
      <trkpt lat="44.10606" lon="1.39509">
        <ele>145</ele>
        <time>2019-04-19T15:49:41+02:00</time>
      </trkpt>
      <trkpt lat="44.10614" lon="1.39499">
        <ele>145</ele>
        <time>2019-04-19T15:49:46+02:00</time>
      </trkpt>
      <trkpt lat="44.10621" lon="1.3949">
        <ele>145</ele>
        <time>2019-04-19T15:49:51+02:00</time>
      </trkpt>
      <trkpt lat="44.10627" lon="1.39479">
        <ele>145</ele>
        <time>2019-04-19T15:49:56+02:00</time>
      </trkpt>
      <trkpt lat="44.10631" lon="1.39467">
        <ele>146</ele>
        <time>2019-04-19T15:50:01+02:00</time>
      </trkpt>
      <trkpt lat="44.10636" lon="1.39452">
        <ele>147</ele>
        <time>2019-04-19T15:50:06+02:00</time>
      </trkpt>
      <trkpt lat="44.10639" lon="1.3944">
        <ele>148</ele>
        <time>2019-04-19T15:50:11+02:00</time>
      </trkpt>
      <trkpt lat="44.10642" lon="1.39426">
        <ele>149</ele>
        <time>2019-04-19T15:50:17+02:00</time>
      </trkpt>
      <trkpt lat="44.10642" lon="1.39413">
        <ele>150</ele>
        <time>2019-04-19T15:50:22+02:00</time>
      </trkpt>
      <trkpt lat="44.1064" lon="1.39401">
        <ele>151</ele>
        <time>2019-04-19T15:50:27+02:00</time>
      </trkpt>
      <trkpt lat="44.10638" lon="1.39388">
        <ele>152</ele>
        <time>2019-04-19T15:50:32+02:00</time>
      </trkpt>
      <trkpt lat="44.10637" lon="1.39374">
        <ele>153</ele>
        <time>2019-04-19T15:50:37+02:00</time>
      </trkpt>
      <trkpt lat="44.10635" lon="1.3936">
        <ele>155</ele>
        <time>2019-04-19T15:50:43+02:00</time>
      </trkpt>
      <trkpt lat="44.10635" lon="1.39347">
        <ele>156</ele>
        <time>2019-04-19T15:50:48+02:00</time>
      </trkpt>
      <trkpt lat="44.10634" lon="1.39333">
        <ele>157</ele>
        <time>2019-04-19T15:50:53+02:00</time>
      </trkpt>
      <trkpt lat="44.10635" lon="1.39319">
        <ele>159</ele>
        <time>2019-04-19T15:50:58+02:00</time>
      </trkpt>
      <trkpt lat="44.10636" lon="1.39305">
        <ele>160</ele>
        <time>2019-04-19T15:51:03+02:00</time>
      </trkpt>
      <trkpt lat="44.10637" lon="1.39292">
        <ele>161</ele>
        <time>2019-04-19T15:51:09+02:00</time>
      </trkpt>
      <trkpt lat="44.10638" lon="1.39278">
        <ele>163</ele>
        <time>2019-04-19T15:51:15+02:00</time>
      </trkpt>
      <trkpt lat="44.10638" lon="1.39263">
        <ele>164</ele>
        <time>2019-04-19T15:51:21+02:00</time>
      </trkpt>
      <trkpt lat="44.10638" lon="1.3925">
        <ele>165</ele>
        <time>2019-04-19T15:51:27+02:00</time>
      </trkpt>
      <trkpt lat="44.10638" lon="1.39235">
        <ele>165</ele>
        <time>2019-04-19T15:51:33+02:00</time>
      </trkpt>
      <trkpt lat="44.10639" lon="1.39222">
        <ele>165</ele>
        <time>2019-04-19T15:51:38+02:00</time>
      </trkpt>
      <trkpt lat="44.10639" lon="1.39209">
        <ele>165</ele>
        <time>2019-04-19T15:51:43+02:00</time>
      </trkpt>
      <trkpt lat="44.10641" lon="1.39196">
        <ele>165</ele>
        <time>2019-04-19T15:51:48+02:00</time>
      </trkpt>
      <trkpt lat="44.10644" lon="1.39182">
        <ele>166</ele>
        <time>2019-04-19T15:51:53+02:00</time>
      </trkpt>
      <trkpt lat="44.1065" lon="1.39171">
        <ele>167</ele>
        <time>2019-04-19T15:51:58+02:00</time>
      </trkpt>
      <trkpt lat="44.10656" lon="1.3916">
        <ele>168</ele>
        <time>2019-04-19T15:52:04+02:00</time>
      </trkpt>
      <trkpt lat="44.10664" lon="1.3915">
        <ele>170</ele>
        <time>2019-04-19T15:52:10+02:00</time>
      </trkpt>
      <trkpt lat="44.10671" lon="1.3914">
        <ele>171</ele>
        <time>2019-04-19T15:52:15+02:00</time>
      </trkpt>
      <trkpt lat="44.10678" lon="1.39128">
        <ele>170</ele>
        <time>2019-04-19T15:52:49+02:00</time>
      </trkpt>
      <trkpt lat="44.10683" lon="1.39115">
        <ele>170</ele>
        <time>2019-04-19T15:52:52+02:00</time>
      </trkpt>
      <trkpt lat="44.10685" lon="1.39101">
        <ele>171</ele>
        <time>2019-04-19T15:52:56+02:00</time>
      </trkpt>
      <trkpt lat="44.10688" lon="1.39088">
        <ele>171</ele>
        <time>2019-04-19T15:53:01+02:00</time>
      </trkpt>
      <trkpt lat="44.10691" lon="1.39074">
        <ele>172</ele>
        <time>2019-04-19T15:53:06+02:00</time>
      </trkpt>
      <trkpt lat="44.10697" lon="1.39062">
        <ele>174</ele>
        <time>2019-04-19T15:53:13+02:00</time>
      </trkpt>
      <trkpt lat="44.10703" lon="1.39053">
        <ele>175</ele>
        <time>2019-04-19T15:53:19+02:00</time>
      </trkpt>
      <trkpt lat="44.10711" lon="1.39044">
        <ele>176</ele>
        <time>2019-04-19T15:53:39+02:00</time>
      </trkpt>
      <trkpt lat="44.10718" lon="1.39035">
        <ele>177</ele>
        <time>2019-04-19T15:53:44+02:00</time>
      </trkpt>
      <trkpt lat="44.10724" lon="1.39024">
        <ele>179</ele>
        <time>2019-04-19T15:53:49+02:00</time>
      </trkpt>
      <trkpt lat="44.1073" lon="1.39013">
        <ele>180</ele>
        <time>2019-04-19T15:53:54+02:00</time>
      </trkpt>
      <trkpt lat="44.10735" lon="1.39002">
        <ele>182</ele>
        <time>2019-04-19T15:54:00+02:00</time>
      </trkpt>
      <trkpt lat="44.10738" lon="1.38989">
        <ele>182</ele>
        <time>2019-04-19T15:54:07+02:00</time>
      </trkpt>
      <trkpt lat="44.10738" lon="1.38974">
        <ele>183</ele>
        <time>2019-04-19T15:54:13+02:00</time>
      </trkpt>
      <trkpt lat="44.1074" lon="1.38962">
        <ele>184</ele>
        <time>2019-04-19T15:54:18+02:00</time>
      </trkpt>
      <trkpt lat="44.10741" lon="1.38947">
        <ele>184</ele>
        <time>2019-04-19T15:54:24+02:00</time>
      </trkpt>
      <trkpt lat="44.10741" lon="1.38933">
        <ele>185</ele>
        <time>2019-04-19T15:54:29+02:00</time>
      </trkpt>
      <trkpt lat="44.1074" lon="1.38919">
        <ele>185</ele>
        <time>2019-04-19T15:54:34+02:00</time>
      </trkpt>
      <trkpt lat="44.10737" lon="1.38907">
        <ele>186</ele>
        <time>2019-04-19T15:54:39+02:00</time>
      </trkpt>
      <trkpt lat="44.10733" lon="1.38895">
        <ele>186</ele>
        <time>2019-04-19T15:54:44+02:00</time>
      </trkpt>
      <trkpt lat="44.10728" lon="1.38883">
        <ele>186</ele>
        <time>2019-04-19T15:54:49+02:00</time>
      </trkpt>
      <trkpt lat="44.10724" lon="1.38871">
        <ele>186</ele>
        <time>2019-04-19T15:54:54+02:00</time>
      </trkpt>
      <trkpt lat="44.1072" lon="1.38859">
        <ele>186</ele>
        <time>2019-04-19T15:54:59+02:00</time>
      </trkpt>
      <trkpt lat="44.10716" lon="1.38847">
        <ele>186</ele>
        <time>2019-04-19T15:55:04+02:00</time>
      </trkpt>
      <trkpt lat="44.1071" lon="1.38836">
        <ele>186</ele>
        <time>2019-04-19T15:55:09+02:00</time>
      </trkpt>
      <trkpt lat="44.10703" lon="1.38825">
        <ele>186</ele>
        <time>2019-04-19T15:55:15+02:00</time>
      </trkpt>
      <trkpt lat="44.10701" lon="1.38813">
        <ele>186</ele>
        <time>2019-04-19T15:55:21+02:00</time>
      </trkpt>
      <trkpt lat="44.10699" lon="1.388">
        <ele>186</ele>
        <time>2019-04-19T15:55:51+02:00</time>
      </trkpt>
      <trkpt lat="44.10697" lon="1.38788">
        <ele>186</ele>
        <time>2019-04-19T15:55:55+02:00</time>
      </trkpt>
      <trkpt lat="44.10695" lon="1.38774">
        <ele>186</ele>
        <time>2019-04-19T15:55:59+02:00</time>
      </trkpt>
      <trkpt lat="44.10695" lon="1.38758">
        <ele>185</ele>
        <time>2019-04-19T15:56:03+02:00</time>
      </trkpt>
      <trkpt lat="44.10693" lon="1.38743">
        <ele>186</ele>
        <time>2019-04-19T15:56:06+02:00</time>
      </trkpt>
      <trkpt lat="44.10692" lon="1.38729">
        <ele>186</ele>
        <time>2019-04-19T15:56:09+02:00</time>
      </trkpt>
      <trkpt lat="44.10691" lon="1.38716">
        <ele>187</ele>
        <time>2019-04-19T15:56:12+02:00</time>
      </trkpt>
      <trkpt lat="44.10687" lon="1.38687">
        <ele>188</ele>
        <time>2019-04-19T15:56:19+02:00</time>
      </trkpt>
      <trkpt lat="44.10686" lon="1.38673">
        <ele>189</ele>
        <time>2019-04-19T15:56:22+02:00</time>
      </trkpt>
      <trkpt lat="44.10684" lon="1.3866">
        <ele>189</ele>
        <time>2019-04-19T15:56:25+02:00</time>
      </trkpt>
      <trkpt lat="44.10682" lon="1.38647">
        <ele>190</ele>
        <time>2019-04-19T15:56:28+02:00</time>
      </trkpt>
      <trkpt lat="44.10681" lon="1.38634">
        <ele>190</ele>
        <time>2019-04-19T15:56:31+02:00</time>
      </trkpt>
      <trkpt lat="44.1068" lon="1.3862">
        <ele>191</ele>
        <time>2019-04-19T15:56:34+02:00</time>
      </trkpt>
      <trkpt lat="44.10677" lon="1.38606">
        <ele>192</ele>
        <time>2019-04-19T15:56:38+02:00</time>
      </trkpt>
      <trkpt lat="44.10673" lon="1.38593">
        <ele>192</ele>
        <time>2019-04-19T15:56:43+02:00</time>
      </trkpt>
      <trkpt lat="44.10668" lon="1.38579">
        <ele>193</ele>
        <time>2019-04-19T15:56:47+02:00</time>
      </trkpt>
      <trkpt lat="44.10665" lon="1.38566">
        <ele>193</ele>
        <time>2019-04-19T15:56:50+02:00</time>
      </trkpt>
      <trkpt lat="44.1066" lon="1.38553">
        <ele>193</ele>
        <time>2019-04-19T15:56:53+02:00</time>
      </trkpt>
      <trkpt lat="44.10654" lon="1.3854">
        <ele>193</ele>
        <time>2019-04-19T15:56:56+02:00</time>
      </trkpt>
      <trkpt lat="44.10649" lon="1.38527">
        <ele>193</ele>
        <time>2019-04-19T15:56:59+02:00</time>
      </trkpt>
      <trkpt lat="44.10642" lon="1.38517">
        <ele>193</ele>
        <time>2019-04-19T15:57:03+02:00</time>
      </trkpt>
      <trkpt lat="44.10633" lon="1.38508">
        <ele>193</ele>
        <time>2019-04-19T15:57:09+02:00</time>
      </trkpt>
      <trkpt lat="44.10623" lon="1.38503">
        <ele>193</ele>
        <time>2019-04-19T15:57:12+02:00</time>
      </trkpt>
      <trkpt lat="44.10611" lon="1.38498">
        <ele>193</ele>
        <time>2019-04-19T15:57:15+02:00</time>
      </trkpt>
      <trkpt lat="44.10593" lon="1.3849">
        <ele>192</ele>
        <time>2019-04-19T15:57:24+02:00</time>
      </trkpt>
      <trkpt lat="44.10582" lon="1.38493">
        <ele>191</ele>
        <time>2019-04-19T15:57:28+02:00</time>
      </trkpt>
      <trkpt lat="44.10572" lon="1.38498">
        <ele>192</ele>
        <time>2019-04-19T15:57:31+02:00</time>
      </trkpt>
      <trkpt lat="44.10561" lon="1.38503">
        <ele>192</ele>
        <time>2019-04-19T15:57:34+02:00</time>
      </trkpt>
      <trkpt lat="44.1055" lon="1.38509">
        <ele>192</ele>
        <time>2019-04-19T15:57:37+02:00</time>
      </trkpt>
      <trkpt lat="44.10529" lon="1.38519">
        <ele>191</ele>
        <time>2019-04-19T15:57:43+02:00</time>
      </trkpt>
      <trkpt lat="44.10518" lon="1.38525">
        <ele>191</ele>
        <time>2019-04-19T15:57:46+02:00</time>
      </trkpt>
      <trkpt lat="44.10497" lon="1.38534">
        <ele>191</ele>
        <time>2019-04-19T15:57:52+02:00</time>
      </trkpt>
      <trkpt lat="44.10489" lon="1.38539">
        <ele>191</ele>
        <time>2019-04-19T15:57:55+02:00</time>
      </trkpt>
      <trkpt lat="44.10477" lon="1.38543">
        <ele>192</ele>
        <time>2019-04-19T15:57:59+02:00</time>
      </trkpt>
      <trkpt lat="44.10468" lon="1.38548">
        <ele>192</ele>
        <time>2019-04-19T15:58:02+02:00</time>
      </trkpt>
      <trkpt lat="44.10458" lon="1.38552">
        <ele>192</ele>
        <time>2019-04-19T15:58:06+02:00</time>
      </trkpt>
      <trkpt lat="44.10438" lon="1.38561">
        <ele>192</ele>
        <time>2019-04-19T15:58:12+02:00</time>
      </trkpt>
      <trkpt lat="44.10428" lon="1.38566">
        <ele>193</ele>
        <time>2019-04-19T15:58:15+02:00</time>
      </trkpt>
      <trkpt lat="44.10418" lon="1.38571">
        <ele>193</ele>
        <time>2019-04-19T15:58:18+02:00</time>
      </trkpt>
      <trkpt lat="44.10408" lon="1.38575">
        <ele>193</ele>
        <time>2019-04-19T15:58:21+02:00</time>
      </trkpt>
      <trkpt lat="44.10399" lon="1.38581">
        <ele>192</ele>
        <time>2019-04-19T15:58:24+02:00</time>
      </trkpt>
      <trkpt lat="44.10391" lon="1.38573">
        <ele>192</ele>
        <time>2019-04-19T15:58:28+02:00</time>
      </trkpt>
      <trkpt lat="44.10395" lon="1.38558">
        <ele>191</ele>
        <time>2019-04-19T15:58:32+02:00</time>
      </trkpt>
      <trkpt lat="44.10399" lon="1.38544">
        <ele>191</ele>
        <time>2019-04-19T15:58:36+02:00</time>
      </trkpt>
      <trkpt lat="44.10404" lon="1.38531">
        <ele>192</ele>
        <time>2019-04-19T15:58:41+02:00</time>
      </trkpt>
      <trkpt lat="44.1041" lon="1.38518">
        <ele>192</ele>
        <time>2019-04-19T15:58:46+02:00</time>
      </trkpt>
      <trkpt lat="44.10415" lon="1.38508">
        <ele>193</ele>
        <time>2019-04-19T15:58:50+02:00</time>
      </trkpt>
      <trkpt lat="44.10421" lon="1.38497">
        <ele>193</ele>
        <time>2019-04-19T15:58:54+02:00</time>
      </trkpt>
      <trkpt lat="44.10426" lon="1.38484">
        <ele>193</ele>
        <time>2019-04-19T15:58:58+02:00</time>
      </trkpt>
      <trkpt lat="44.1043" lon="1.38468">
        <ele>193</ele>
        <time>2019-04-19T15:59:02+02:00</time>
      </trkpt>
      <trkpt lat="44.10435" lon="1.38457">
        <ele>193</ele>
        <time>2019-04-19T15:59:05+02:00</time>
      </trkpt>
      <trkpt lat="44.10438" lon="1.38444">
        <ele>193</ele>
        <time>2019-04-19T15:59:08+02:00</time>
      </trkpt>
      <trkpt lat="44.1044" lon="1.3843">
        <ele>192</ele>
        <time>2019-04-19T15:59:11+02:00</time>
      </trkpt>
      <trkpt lat="44.10443" lon="1.38416">
        <ele>192</ele>
        <time>2019-04-19T15:59:14+02:00</time>
      </trkpt>
      <trkpt lat="44.10448" lon="1.38404">
        <ele>191</ele>
        <time>2019-04-19T15:59:17+02:00</time>
      </trkpt>
      <trkpt lat="44.10455" lon="1.38395">
        <ele>191</ele>
        <time>2019-04-19T15:59:19+02:00</time>
      </trkpt>
      <trkpt lat="44.10463" lon="1.38382">
        <ele>190</ele>
        <time>2019-04-19T15:59:21+02:00</time>
      </trkpt>
      <trkpt lat="44.10468" lon="1.38367">
        <ele>190</ele>
        <time>2019-04-19T15:59:23+02:00</time>
      </trkpt>
      <trkpt lat="44.1047" lon="1.38352">
        <ele>189</ele>
        <time>2019-04-19T15:59:25+02:00</time>
      </trkpt>
      <trkpt lat="44.10472" lon="1.38338">
        <ele>189</ele>
        <time>2019-04-19T15:59:27+02:00</time>
      </trkpt>
      <trkpt lat="44.10475" lon="1.38323">
        <ele>189</ele>
        <time>2019-04-19T15:59:29+02:00</time>
      </trkpt>
      <trkpt lat="44.10477" lon="1.38308">
        <ele>189</ele>
        <time>2019-04-19T15:59:31+02:00</time>
      </trkpt>
      <trkpt lat="44.1048" lon="1.38294">
        <ele>188</ele>
        <time>2019-04-19T15:59:33+02:00</time>
      </trkpt>
      <trkpt lat="44.10484" lon="1.38278">
        <ele>188</ele>
        <time>2019-04-19T15:59:36+02:00</time>
      </trkpt>
      <trkpt lat="44.10481" lon="1.3826">
        <ele>188</ele>
        <time>2019-04-19T15:59:39+02:00</time>
      </trkpt>
      <trkpt lat="44.10477" lon="1.38245">
        <ele>188</ele>
        <time>2019-04-19T15:59:42+02:00</time>
      </trkpt>
      <trkpt lat="44.10471" lon="1.38229">
        <ele>186</ele>
        <time>2019-04-19T15:59:45+02:00</time>
      </trkpt>
      <trkpt lat="44.10469" lon="1.38215">
        <ele>185</ele>
        <time>2019-04-19T15:59:47+02:00</time>
      </trkpt>
      <trkpt lat="44.10469" lon="1.38199">
        <ele>184</ele>
        <time>2019-04-19T15:59:49+02:00</time>
      </trkpt>
      <trkpt lat="44.1047" lon="1.38185">
        <ele>183</ele>
        <time>2019-04-19T15:59:51+02:00</time>
      </trkpt>
      <trkpt lat="44.1047" lon="1.38169">
        <ele>182</ele>
        <time>2019-04-19T15:59:54+02:00</time>
      </trkpt>
      <trkpt lat="44.10473" lon="1.38152">
        <ele>181</ele>
        <time>2019-04-19T15:59:57+02:00</time>
      </trkpt>
      <trkpt lat="44.10477" lon="1.38136">
        <ele>179</ele>
        <time>2019-04-19T16:00:00+02:00</time>
      </trkpt>
      <trkpt lat="44.10478" lon="1.38119">
        <ele>178</ele>
        <time>2019-04-19T16:00:03+02:00</time>
      </trkpt>
      <trkpt lat="44.1048" lon="1.38105">
        <ele>177</ele>
        <time>2019-04-19T16:00:06+02:00</time>
      </trkpt>
      <trkpt lat="44.10484" lon="1.38087">
        <ele>175</ele>
        <time>2019-04-19T16:00:09+02:00</time>
      </trkpt>
      <trkpt lat="44.10488" lon="1.38072">
        <ele>175</ele>
        <time>2019-04-19T16:00:11+02:00</time>
      </trkpt>
      <trkpt lat="44.10493" lon="1.38056">
        <ele>174</ele>
        <time>2019-04-19T16:00:13+02:00</time>
      </trkpt>
      <trkpt lat="44.10495" lon="1.38041">
        <ele>173</ele>
        <time>2019-04-19T16:00:15+02:00</time>
      </trkpt>
      <trkpt lat="44.10494" lon="1.38027">
        <ele>172</ele>
        <time>2019-04-19T16:00:17+02:00</time>
      </trkpt>
      <trkpt lat="44.10494" lon="1.38012">
        <ele>171</ele>
        <time>2019-04-19T16:00:19+02:00</time>
      </trkpt>
      <trkpt lat="44.10494" lon="1.37996">
        <ele>170</ele>
        <time>2019-04-19T16:00:21+02:00</time>
      </trkpt>
      <trkpt lat="44.10494" lon="1.37981">
        <ele>170</ele>
        <time>2019-04-19T16:00:23+02:00</time>
      </trkpt>
      <trkpt lat="44.10495" lon="1.37967">
        <ele>170</ele>
        <time>2019-04-19T16:00:25+02:00</time>
      </trkpt>
      <trkpt lat="44.10496" lon="1.37953">
        <ele>170</ele>
        <time>2019-04-19T16:00:27+02:00</time>
      </trkpt>
      <trkpt lat="44.10499" lon="1.37938">
        <ele>170</ele>
        <time>2019-04-19T16:00:29+02:00</time>
      </trkpt>
      <trkpt lat="44.10501" lon="1.37921">
        <ele>170</ele>
        <time>2019-04-19T16:00:31+02:00</time>
      </trkpt>
      <trkpt lat="44.10504" lon="1.37902">
        <ele>168</ele>
        <time>2019-04-19T16:00:33+02:00</time>
      </trkpt>
      <trkpt lat="44.10506" lon="1.37885">
        <ele>166</ele>
        <time>2019-04-19T16:00:35+02:00</time>
      </trkpt>
      <trkpt lat="44.1051" lon="1.37872">
        <ele>165</ele>
        <time>2019-04-19T16:00:37+02:00</time>
      </trkpt>
      <trkpt lat="44.10515" lon="1.37861">
        <ele>164</ele>
        <time>2019-04-19T16:00:39+02:00</time>
      </trkpt>
      <trkpt lat="44.10521" lon="1.37848">
        <ele>163</ele>
        <time>2019-04-19T16:00:42+02:00</time>
      </trkpt>
      <trkpt lat="44.10526" lon="1.37832">
        <ele>162</ele>
        <time>2019-04-19T16:00:45+02:00</time>
      </trkpt>
      <trkpt lat="44.10528" lon="1.37815">
        <ele>160</ele>
        <time>2019-04-19T16:00:48+02:00</time>
      </trkpt>
      <trkpt lat="44.10531" lon="1.37801">
        <ele>159</ele>
        <time>2019-04-19T16:00:50+02:00</time>
      </trkpt>
      <trkpt lat="44.10536" lon="1.37787">
        <ele>158</ele>
        <time>2019-04-19T16:00:52+02:00</time>
      </trkpt>
      <trkpt lat="44.1054" lon="1.37773">
        <ele>157</ele>
        <time>2019-04-19T16:00:54+02:00</time>
      </trkpt>
      <trkpt lat="44.10541" lon="1.3776">
        <ele>156</ele>
        <time>2019-04-19T16:00:56+02:00</time>
      </trkpt>
      <trkpt lat="44.10546" lon="1.37743">
        <ele>155</ele>
        <time>2019-04-19T16:00:59+02:00</time>
      </trkpt>
      <trkpt lat="44.10552" lon="1.3773">
        <ele>153</ele>
        <time>2019-04-19T16:01:01+02:00</time>
      </trkpt>
      <trkpt lat="44.10556" lon="1.37718">
        <ele>152</ele>
        <time>2019-04-19T16:01:03+02:00</time>
      </trkpt>
      <trkpt lat="44.10555" lon="1.37704">
        <ele>150</ele>
        <time>2019-04-19T16:01:06+02:00</time>
      </trkpt>
      <trkpt lat="44.10542" lon="1.37703">
        <ele>149</ele>
        <time>2019-04-19T16:01:09+02:00</time>
      </trkpt>
      <trkpt lat="44.10534" lon="1.37712">
        <ele>150</ele>
        <time>2019-04-19T16:01:12+02:00</time>
      </trkpt>
      <trkpt lat="44.10521" lon="1.3772">
        <ele>150</ele>
        <time>2019-04-19T16:01:16+02:00</time>
      </trkpt>
      <trkpt lat="44.1051" lon="1.37727">
        <ele>150</ele>
        <time>2019-04-19T16:01:19+02:00</time>
      </trkpt>
      <trkpt lat="44.10499" lon="1.37737">
        <ele>151</ele>
        <time>2019-04-19T16:01:22+02:00</time>
      </trkpt>
      <trkpt lat="44.10491" lon="1.37746">
        <ele>151</ele>
        <time>2019-04-19T16:01:26+02:00</time>
      </trkpt>
      <trkpt lat="44.10482" lon="1.37754">
        <ele>151</ele>
        <time>2019-04-19T16:01:30+02:00</time>
      </trkpt>
      <trkpt lat="44.10473" lon="1.37761">
        <ele>150</ele>
        <time>2019-04-19T16:01:34+02:00</time>
      </trkpt>
      <trkpt lat="44.10463" lon="1.37767">
        <ele>149</ele>
        <time>2019-04-19T16:01:37+02:00</time>
      </trkpt>
      <trkpt lat="44.10454" lon="1.37771">
        <ele>148</ele>
        <time>2019-04-19T16:01:40+02:00</time>
      </trkpt>
      <trkpt lat="44.10445" lon="1.37765">
        <ele>146</ele>
        <time>2019-04-19T16:01:45+02:00</time>
      </trkpt>
      <trkpt lat="44.10446" lon="1.37752">
        <ele>145</ele>
        <time>2019-04-19T16:04:16+02:00</time>
      </trkpt>
      <trkpt lat="44.10449" lon="1.3774">
        <ele>145</ele>
        <time>2019-04-19T16:04:22+02:00</time>
      </trkpt>
      <trkpt lat="44.10455" lon="1.37729">
        <ele>144</ele>
        <time>2019-04-19T16:04:29+02:00</time>
      </trkpt>
      <trkpt lat="44.10463" lon="1.37718">
        <ele>144</ele>
        <time>2019-04-19T16:04:41+02:00</time>
      </trkpt>
      <trkpt lat="44.1047" lon="1.37706">
        <ele>143</ele>
        <time>2019-04-19T16:04:45+02:00</time>
      </trkpt>
      <trkpt lat="44.1047" lon="1.37693">
        <ele>141</ele>
        <time>2019-04-19T16:04:50+02:00</time>
      </trkpt>
      <trkpt lat="44.10466" lon="1.37679">
        <ele>139</ele>
        <time>2019-04-19T16:04:56+02:00</time>
      </trkpt>
      <trkpt lat="44.10463" lon="1.37665">
        <ele>137</ele>
        <time>2019-04-19T16:04:59+02:00</time>
      </trkpt>
      <trkpt lat="44.10461" lon="1.37648">
        <ele>136</ele>
        <time>2019-04-19T16:05:02+02:00</time>
      </trkpt>
      <trkpt lat="44.10455" lon="1.37632">
        <ele>134</ele>
        <time>2019-04-19T16:05:04+02:00</time>
      </trkpt>
      <trkpt lat="44.1045" lon="1.37616">
        <ele>132</ele>
        <time>2019-04-19T16:05:06+02:00</time>
      </trkpt>
      <trkpt lat="44.10444" lon="1.37602">
        <ele>131</ele>
        <time>2019-04-19T16:05:08+02:00</time>
      </trkpt>
      <trkpt lat="44.10437" lon="1.37591">
        <ele>129</ele>
        <time>2019-04-19T16:05:10+02:00</time>
      </trkpt>
      <trkpt lat="44.10429" lon="1.37581">
        <ele>128</ele>
        <time>2019-04-19T16:05:13+02:00</time>
      </trkpt>
      <trkpt lat="44.10424" lon="1.3757">
        <ele>128</ele>
        <time>2019-04-19T16:05:17+02:00</time>
      </trkpt>
      <trkpt lat="44.10418" lon="1.37554">
        <ele>128</ele>
        <time>2019-04-19T16:05:21+02:00</time>
      </trkpt>
      <trkpt lat="44.10412" lon="1.37541">
        <ele>128</ele>
        <time>2019-04-19T16:05:24+02:00</time>
      </trkpt>
      <trkpt lat="44.10407" lon="1.37531">
        <ele>129</ele>
        <time>2019-04-19T16:05:27+02:00</time>
      </trkpt>
      <trkpt lat="44.10401" lon="1.37519">
        <ele>129</ele>
        <time>2019-04-19T16:05:30+02:00</time>
      </trkpt>
      <trkpt lat="44.10396" lon="1.37503">
        <ele>129</ele>
        <time>2019-04-19T16:05:33+02:00</time>
      </trkpt>
      <trkpt lat="44.10391" lon="1.37485">
        <ele>129</ele>
        <time>2019-04-19T16:05:36+02:00</time>
      </trkpt>
      <trkpt lat="44.10388" lon="1.37471">
        <ele>129</ele>
        <time>2019-04-19T16:05:38+02:00</time>
      </trkpt>
      <trkpt lat="44.10385" lon="1.37456">
        <ele>129</ele>
        <time>2019-04-19T16:05:40+02:00</time>
      </trkpt>
      <trkpt lat="44.10384" lon="1.37441">
        <ele>128</ele>
        <time>2019-04-19T16:05:42+02:00</time>
      </trkpt>
      <trkpt lat="44.10384" lon="1.37426">
        <ele>128</ele>
        <time>2019-04-19T16:05:44+02:00</time>
      </trkpt>
      <trkpt lat="44.10384" lon="1.37411">
        <ele>128</ele>
        <time>2019-04-19T16:05:46+02:00</time>
      </trkpt>
      <trkpt lat="44.10382" lon="1.37393">
        <ele>128</ele>
        <time>2019-04-19T16:05:48+02:00</time>
      </trkpt>
      <trkpt lat="44.10379" lon="1.37375">
        <ele>127</ele>
        <time>2019-04-19T16:05:50+02:00</time>
      </trkpt>
      <trkpt lat="44.10374" lon="1.37358">
        <ele>127</ele>
        <time>2019-04-19T16:05:52+02:00</time>
      </trkpt>
      <trkpt lat="44.10369" lon="1.3734">
        <ele>126</ele>
        <time>2019-04-19T16:05:54+02:00</time>
      </trkpt>
      <trkpt lat="44.10365" lon="1.37323">
        <ele>125</ele>
        <time>2019-04-19T16:05:56+02:00</time>
      </trkpt>
      <trkpt lat="44.10359" lon="1.37309">
        <ele>124</ele>
        <time>2019-04-19T16:05:58+02:00</time>
      </trkpt>
      <trkpt lat="44.10353" lon="1.37294">
        <ele>123</ele>
        <time>2019-04-19T16:06:00+02:00</time>
      </trkpt>
      <trkpt lat="44.10347" lon="1.3728">
        <ele>122</ele>
        <time>2019-04-19T16:06:02+02:00</time>
      </trkpt>
      <trkpt lat="44.10341" lon="1.37265">
        <ele>120</ele>
        <time>2019-04-19T16:06:04+02:00</time>
      </trkpt>
      <trkpt lat="44.10338" lon="1.37248">
        <ele>119</ele>
        <time>2019-04-19T16:06:06+02:00</time>
      </trkpt>
      <trkpt lat="44.10338" lon="1.3723">
        <ele>118</ele>
        <time>2019-04-19T16:06:08+02:00</time>
      </trkpt>
      <trkpt lat="44.10337" lon="1.37212">
        <ele>118</ele>
        <time>2019-04-19T16:06:10+02:00</time>
      </trkpt>
      <trkpt lat="44.10339" lon="1.37195">
        <ele>118</ele>
        <time>2019-04-19T16:06:12+02:00</time>
      </trkpt>
      <trkpt lat="44.10341" lon="1.37178">
        <ele>118</ele>
        <time>2019-04-19T16:06:14+02:00</time>
      </trkpt>
      <trkpt lat="44.10343" lon="1.37163">
        <ele>118</ele>
        <time>2019-04-19T16:06:16+02:00</time>
      </trkpt>
      <trkpt lat="44.10345" lon="1.37149">
        <ele>117</ele>
        <time>2019-04-19T16:06:18+02:00</time>
      </trkpt>
      <trkpt lat="44.10347" lon="1.37137">
        <ele>117</ele>
        <time>2019-04-19T16:06:20+02:00</time>
      </trkpt>
      <trkpt lat="44.10348" lon="1.37118">
        <ele>117</ele>
        <time>2019-04-19T16:06:23+02:00</time>
      </trkpt>
      <trkpt lat="44.10348" lon="1.37102">
        <ele>116</ele>
        <time>2019-04-19T16:06:26+02:00</time>
      </trkpt>
      <trkpt lat="44.10348" lon="1.37089">
        <ele>116</ele>
        <time>2019-04-19T16:06:30+02:00</time>
      </trkpt>
      <trkpt lat="44.10347" lon="1.37074">
        <ele>115</ele>
        <time>2019-04-19T16:06:53+02:00</time>
      </trkpt>
      <trkpt lat="44.10348" lon="1.37061">
        <ele>115</ele>
        <time>2019-04-19T16:06:56+02:00</time>
      </trkpt>
      <trkpt lat="44.1035" lon="1.37043">
        <ele>115</ele>
        <time>2019-04-19T16:06:59+02:00</time>
      </trkpt>
      <trkpt lat="44.10352" lon="1.37031">
        <ele>115</ele>
        <time>2019-04-19T16:07:01+02:00</time>
      </trkpt>
      <trkpt lat="44.10353" lon="1.37017">
        <ele>115</ele>
        <time>2019-04-19T16:07:03+02:00</time>
      </trkpt>
      <trkpt lat="44.10355" lon="1.37004">
        <ele>115</ele>
        <time>2019-04-19T16:07:05+02:00</time>
      </trkpt>
      <trkpt lat="44.10356" lon="1.36991">
        <ele>116</ele>
        <time>2019-04-19T16:07:07+02:00</time>
      </trkpt>
      <trkpt lat="44.10358" lon="1.36973">
        <ele>116</ele>
        <time>2019-04-19T16:07:10+02:00</time>
      </trkpt>
      <trkpt lat="44.10358" lon="1.36955">
        <ele>117</ele>
        <time>2019-04-19T16:07:13+02:00</time>
      </trkpt>
      <trkpt lat="44.10358" lon="1.36942">
        <ele>117</ele>
        <time>2019-04-19T16:07:15+02:00</time>
      </trkpt>
      <trkpt lat="44.10359" lon="1.3693">
        <ele>118</ele>
        <time>2019-04-19T16:07:17+02:00</time>
      </trkpt>
      <trkpt lat="44.10359" lon="1.36916">
        <ele>118</ele>
        <time>2019-04-19T16:07:19+02:00</time>
      </trkpt>
      <trkpt lat="44.10359" lon="1.36903">
        <ele>118</ele>
        <time>2019-04-19T16:07:21+02:00</time>
      </trkpt>
      <trkpt lat="44.1036" lon="1.3689">
        <ele>118</ele>
        <time>2019-04-19T16:07:23+02:00</time>
      </trkpt>
      <trkpt lat="44.1036" lon="1.36876">
        <ele>119</ele>
        <time>2019-04-19T16:07:25+02:00</time>
      </trkpt>
      <trkpt lat="44.1036" lon="1.36864">
        <ele>119</ele>
        <time>2019-04-19T16:07:27+02:00</time>
      </trkpt>
      <trkpt lat="44.10359" lon="1.36845">
        <ele>119</ele>
        <time>2019-04-19T16:07:30+02:00</time>
      </trkpt>
      <trkpt lat="44.10359" lon="1.36828">
        <ele>119</ele>
        <time>2019-04-19T16:07:33+02:00</time>
      </trkpt>
      <trkpt lat="44.10359" lon="1.36811">
        <ele>119</ele>
        <time>2019-04-19T16:07:36+02:00</time>
      </trkpt>
      <trkpt lat="44.10359" lon="1.36793">
        <ele>118</ele>
        <time>2019-04-19T16:07:39+02:00</time>
      </trkpt>
      <trkpt lat="44.10358" lon="1.3678">
        <ele>118</ele>
        <time>2019-04-19T16:07:41+02:00</time>
      </trkpt>
      <trkpt lat="44.10357" lon="1.36768">
        <ele>117</ele>
        <time>2019-04-19T16:07:43+02:00</time>
      </trkpt>
      <trkpt lat="44.10357" lon="1.36755">
        <ele>117</ele>
        <time>2019-04-19T16:07:45+02:00</time>
      </trkpt>
      <trkpt lat="44.10358" lon="1.36736">
        <ele>117</ele>
        <time>2019-04-19T16:07:48+02:00</time>
      </trkpt>
      <trkpt lat="44.10358" lon="1.36723">
        <ele>116</ele>
        <time>2019-04-19T16:07:50+02:00</time>
      </trkpt>
      <trkpt lat="44.10358" lon="1.36708">
        <ele>116</ele>
        <time>2019-04-19T16:07:52+02:00</time>
      </trkpt>
      <trkpt lat="44.1036" lon="1.36691">
        <ele>115</ele>
        <time>2019-04-19T16:07:54+02:00</time>
      </trkpt>
      <trkpt lat="44.10361" lon="1.36673">
        <ele>115</ele>
        <time>2019-04-19T16:07:56+02:00</time>
      </trkpt>
      <trkpt lat="44.10363" lon="1.36654">
        <ele>114</ele>
        <time>2019-04-19T16:07:58+02:00</time>
      </trkpt>
      <trkpt lat="44.10366" lon="1.36635">
        <ele>114</ele>
        <time>2019-04-19T16:08:00+02:00</time>
      </trkpt>
      <trkpt lat="44.10368" lon="1.36617">
        <ele>114</ele>
        <time>2019-04-19T16:08:02+02:00</time>
      </trkpt>
      <trkpt lat="44.1037" lon="1.366">
        <ele>113</ele>
        <time>2019-04-19T16:08:04+02:00</time>
      </trkpt>
      <trkpt lat="44.10371" lon="1.36585">
        <ele>113</ele>
        <time>2019-04-19T16:08:06+02:00</time>
      </trkpt>
      <trkpt lat="44.10372" lon="1.36571">
        <ele>113</ele>
        <time>2019-04-19T16:08:08+02:00</time>
      </trkpt>
      <trkpt lat="44.10373" lon="1.36556">
        <ele>113</ele>
        <time>2019-04-19T16:08:10+02:00</time>
      </trkpt>
      <trkpt lat="44.10372" lon="1.36539">
        <ele>113</ele>
        <time>2019-04-19T16:08:12+02:00</time>
      </trkpt>
      <trkpt lat="44.10371" lon="1.36522">
        <ele>113</ele>
        <time>2019-04-19T16:08:14+02:00</time>
      </trkpt>
      <trkpt lat="44.1037" lon="1.36508">
        <ele>112</ele>
        <time>2019-04-19T16:08:16+02:00</time>
      </trkpt>
      <trkpt lat="44.10369" lon="1.36495">
        <ele>112</ele>
        <time>2019-04-19T16:08:18+02:00</time>
      </trkpt>
      <trkpt lat="44.10368" lon="1.36481">
        <ele>112</ele>
        <time>2019-04-19T16:08:20+02:00</time>
      </trkpt>
      <trkpt lat="44.10366" lon="1.36468">
        <ele>111</ele>
        <time>2019-04-19T16:08:22+02:00</time>
      </trkpt>
      <trkpt lat="44.10365" lon="1.36454">
        <ele>111</ele>
        <time>2019-04-19T16:08:25+02:00</time>
      </trkpt>
      <trkpt lat="44.10375" lon="1.3645">
        <ele>112</ele>
        <time>2019-04-19T16:09:37+02:00</time>
      </trkpt>
      <trkpt lat="44.10384" lon="1.36449">
        <ele>113</ele>
        <time>2019-04-19T16:09:45+02:00</time>
      </trkpt>
      <trkpt lat="44.10394" lon="1.36447">
        <ele>114</ele>
        <time>2019-04-19T16:09:53+02:00</time>
      </trkpt>
      <trkpt lat="44.10403" lon="1.36449">
        <ele>116</ele>
        <time>2019-04-19T16:10:01+02:00</time>
      </trkpt>
      <trkpt lat="44.10412" lon="1.36447">
        <ele>117</ele>
        <time>2019-04-19T16:10:09+02:00</time>
      </trkpt>
      <trkpt lat="44.10422" lon="1.36446">
        <ele>118</ele>
        <time>2019-04-19T16:10:17+02:00</time>
      </trkpt>
      <trkpt lat="44.10431" lon="1.36445">
        <ele>120</ele>
        <time>2019-04-19T16:10:24+02:00</time>
      </trkpt>
      <trkpt lat="44.1044" lon="1.36445">
        <ele>122</ele>
        <time>2019-04-19T16:10:31+02:00</time>
      </trkpt>
      <trkpt lat="44.1045" lon="1.36441">
        <ele>124</ele>
        <time>2019-04-19T16:10:39+02:00</time>
      </trkpt>
      <trkpt lat="44.10458" lon="1.36445">
        <ele>125</ele>
        <time>2019-04-19T16:10:49+02:00</time>
      </trkpt>
      <trkpt lat="44.10459" lon="1.36459">
        <ele>126</ele>
        <time>2019-04-19T16:10:56+02:00</time>
      </trkpt>
      <trkpt lat="44.10463" lon="1.36472">
        <ele>126</ele>
        <time>2019-04-19T16:11:01+02:00</time>
      </trkpt>
      <trkpt lat="44.10468" lon="1.36482">
        <ele>128</ele>
        <time>2019-04-19T16:11:06+02:00</time>
      </trkpt>
      <trkpt lat="44.10475" lon="1.36492">
        <ele>129</ele>
        <time>2019-04-19T16:11:12+02:00</time>
      </trkpt>
      <trkpt lat="44.10479" lon="1.36502">
        <ele>130</ele>
        <time>2019-04-19T16:11:18+02:00</time>
      </trkpt>
      <trkpt lat="44.10484" lon="1.36515">
        <ele>131</ele>
        <time>2019-04-19T16:11:24+02:00</time>
      </trkpt>
      <trkpt lat="44.10489" lon="1.36527">
        <ele>132</ele>
        <time>2019-04-19T16:11:30+02:00</time>
      </trkpt>
      <trkpt lat="44.10493" lon="1.36539">
        <ele>133</ele>
        <time>2019-04-19T16:11:36+02:00</time>
      </trkpt>
      <trkpt lat="44.10494" lon="1.36551">
        <ele>134</ele>
        <time>2019-04-19T16:11:43+02:00</time>
      </trkpt>
      <trkpt lat="44.10497" lon="1.36563">
        <ele>134</ele>
        <time>2019-04-19T16:11:50+02:00</time>
      </trkpt>
      <trkpt lat="44.10502" lon="1.36575">
        <ele>135</ele>
        <time>2019-04-19T16:11:59+02:00</time>
      </trkpt>
      <trkpt lat="44.10508" lon="1.36586">
        <ele>137</ele>
        <time>2019-04-19T16:12:07+02:00</time>
      </trkpt>
      <trkpt lat="44.10515" lon="1.36596">
        <ele>138</ele>
        <time>2019-04-19T16:12:14+02:00</time>
      </trkpt>
      <trkpt lat="44.10523" lon="1.36605">
        <ele>140</ele>
        <time>2019-04-19T16:12:20+02:00</time>
      </trkpt>
      <trkpt lat="44.10532" lon="1.36612">
        <ele>142</ele>
        <time>2019-04-19T16:12:26+02:00</time>
      </trkpt>
      <trkpt lat="44.1054" lon="1.36619">
        <ele>144</ele>
        <time>2019-04-19T16:12:33+02:00</time>
      </trkpt>
      <trkpt lat="44.10546" lon="1.36629">
        <ele>146</ele>
        <time>2019-04-19T16:12:39+02:00</time>
      </trkpt>
      <trkpt lat="44.10552" lon="1.3664">
        <ele>147</ele>
        <time>2019-04-19T16:12:44+02:00</time>
      </trkpt>
      <trkpt lat="44.10558" lon="1.3665">
        <ele>149</ele>
        <time>2019-04-19T16:12:51+02:00</time>
      </trkpt>
      <trkpt lat="44.10563" lon="1.36662">
        <ele>150</ele>
        <time>2019-04-19T16:12:59+02:00</time>
      </trkpt>
      <trkpt lat="44.10568" lon="1.36673">
        <ele>152</ele>
        <time>2019-04-19T16:13:06+02:00</time>
      </trkpt>
      <trkpt lat="44.1057" lon="1.36687">
        <ele>153</ele>
        <time>2019-04-19T16:13:13+02:00</time>
      </trkpt>
      <trkpt lat="44.10568" lon="1.367">
        <ele>154</ele>
        <time>2019-04-19T16:13:20+02:00</time>
      </trkpt>
      <trkpt lat="44.10566" lon="1.36713">
        <ele>154</ele>
        <time>2019-04-19T16:13:27+02:00</time>
      </trkpt>
      <trkpt lat="44.10562" lon="1.36725">
        <ele>154</ele>
        <time>2019-04-19T16:13:34+02:00</time>
      </trkpt>
      <trkpt lat="44.10558" lon="1.36739">
        <ele>154</ele>
        <time>2019-04-19T16:13:40+02:00</time>
      </trkpt>
      <trkpt lat="44.10558" lon="1.36753">
        <ele>155</ele>
        <time>2019-04-19T16:13:46+02:00</time>
      </trkpt>
      <trkpt lat="44.10562" lon="1.36765">
        <ele>156</ele>
        <time>2019-04-19T16:13:51+02:00</time>
      </trkpt>
      <trkpt lat="44.10569" lon="1.36776">
        <ele>158</ele>
        <time>2019-04-19T16:13:57+02:00</time>
      </trkpt>
      <trkpt lat="44.10576" lon="1.36786">
        <ele>159</ele>
        <time>2019-04-19T16:14:03+02:00</time>
      </trkpt>
      <trkpt lat="44.10582" lon="1.36794">
        <ele>161</ele>
        <time>2019-04-19T16:14:09+02:00</time>
      </trkpt>
      <trkpt lat="44.10589" lon="1.36803">
        <ele>163</ele>
        <time>2019-04-19T16:14:15+02:00</time>
      </trkpt>
      <trkpt lat="44.10596" lon="1.36812">
        <ele>165</ele>
        <time>2019-04-19T16:14:22+02:00</time>
      </trkpt>
      <trkpt lat="44.10603" lon="1.36821">
        <ele>167</ele>
        <time>2019-04-19T16:14:30+02:00</time>
      </trkpt>
      <trkpt lat="44.10607" lon="1.36833">
        <ele>168</ele>
        <time>2019-04-19T16:14:36+02:00</time>
      </trkpt>
      <trkpt lat="44.10611" lon="1.36845">
        <ele>169</ele>
        <time>2019-04-19T16:14:45+02:00</time>
      </trkpt>
      <trkpt lat="44.10613" lon="1.36858">
        <ele>170</ele>
        <time>2019-04-19T16:14:53+02:00</time>
      </trkpt>
      <trkpt lat="44.10613" lon="1.36871">
        <ele>170</ele>
        <time>2019-04-19T16:15:00+02:00</time>
      </trkpt>
      <trkpt lat="44.10614" lon="1.36884">
        <ele>171</ele>
        <time>2019-04-19T16:15:08+02:00</time>
      </trkpt>
      <trkpt lat="44.10616" lon="1.36898">
        <ele>171</ele>
        <time>2019-04-19T16:15:17+02:00</time>
      </trkpt>
      <trkpt lat="44.10621" lon="1.36911">
        <ele>172</ele>
        <time>2019-04-19T16:15:26+02:00</time>
      </trkpt>
      <trkpt lat="44.10629" lon="1.36917">
        <ele>174</ele>
        <time>2019-04-19T16:15:33+02:00</time>
      </trkpt>
      <trkpt lat="44.10639" lon="1.36915">
        <ele>176</ele>
        <time>2019-04-19T16:15:41+02:00</time>
      </trkpt>
      <trkpt lat="44.10648" lon="1.3691">
        <ele>178</ele>
        <time>2019-04-19T16:15:50+02:00</time>
      </trkpt>
      <trkpt lat="44.10656" lon="1.36903">
        <ele>180</ele>
        <time>2019-04-19T16:15:58+02:00</time>
      </trkpt>
      <trkpt lat="44.10664" lon="1.36897">
        <ele>182</ele>
        <time>2019-04-19T16:16:05+02:00</time>
      </trkpt>
      <trkpt lat="44.10673" lon="1.36894">
        <ele>183</ele>
        <time>2019-04-19T16:16:14+02:00</time>
      </trkpt>
      <trkpt lat="44.10682" lon="1.36888">
        <ele>185</ele>
        <time>2019-04-19T16:16:21+02:00</time>
      </trkpt>
      <trkpt lat="44.10691" lon="1.36884">
        <ele>186</ele>
        <time>2019-04-19T16:16:27+02:00</time>
      </trkpt>
      <trkpt lat="44.107" lon="1.3688">
        <ele>187</ele>
        <time>2019-04-19T16:16:38+02:00</time>
      </trkpt>
      <trkpt lat="44.1071" lon="1.36876">
        <ele>189</ele>
        <time>2019-04-19T16:16:44+02:00</time>
      </trkpt>
      <trkpt lat="44.10719" lon="1.36875">
        <ele>190</ele>
        <time>2019-04-19T16:16:50+02:00</time>
      </trkpt>
      <trkpt lat="44.10729" lon="1.36879">
        <ele>191</ele>
        <time>2019-04-19T16:16:57+02:00</time>
      </trkpt>
      <trkpt lat="44.10739" lon="1.36882">
        <ele>192</ele>
        <time>2019-04-19T16:17:03+02:00</time>
      </trkpt>
      <trkpt lat="44.10749" lon="1.36884">
        <ele>193</ele>
        <time>2019-04-19T16:17:10+02:00</time>
      </trkpt>
      <trkpt lat="44.10759" lon="1.36884">
        <ele>193</ele>
        <time>2019-04-19T16:17:17+02:00</time>
      </trkpt>
      <trkpt lat="44.10769" lon="1.36883">
        <ele>193</ele>
        <time>2019-04-19T16:17:25+02:00</time>
      </trkpt>
      <trkpt lat="44.10777" lon="1.36888">
        <ele>193</ele>
        <time>2019-04-19T16:18:50+02:00</time>
      </trkpt>
      <trkpt lat="44.10777" lon="1.36902">
        <ele>193</ele>
        <time>2019-04-19T16:18:58+02:00</time>
      </trkpt>
      <trkpt lat="44.10775" lon="1.36915">
        <ele>192</ele>
        <time>2019-04-19T16:19:03+02:00</time>
      </trkpt>
      <trkpt lat="44.10774" lon="1.36928">
        <ele>192</ele>
        <time>2019-04-19T16:19:07+02:00</time>
      </trkpt>
      <trkpt lat="44.10773" lon="1.36941">
        <ele>191</ele>
        <time>2019-04-19T16:19:11+02:00</time>
      </trkpt>
      <trkpt lat="44.10776" lon="1.36956">
        <ele>191</ele>
        <time>2019-04-19T16:19:15+02:00</time>
      </trkpt>
      <trkpt lat="44.10778" lon="1.36971">
        <ele>190</ele>
        <time>2019-04-19T16:19:18+02:00</time>
      </trkpt>
      <trkpt lat="44.10782" lon="1.36987">
        <ele>189</ele>
        <time>2019-04-19T16:19:21+02:00</time>
      </trkpt>
      <trkpt lat="44.10785" lon="1.37003">
        <ele>189</ele>
        <time>2019-04-19T16:19:24+02:00</time>
      </trkpt>
      <trkpt lat="44.10789" lon="1.37017">
        <ele>189</ele>
        <time>2019-04-19T16:19:27+02:00</time>
      </trkpt>
      <trkpt lat="44.10794" lon="1.3703">
        <ele>189</ele>
        <time>2019-04-19T16:19:30+02:00</time>
      </trkpt>
      <trkpt lat="44.10799" lon="1.37043">
        <ele>189</ele>
        <time>2019-04-19T16:19:33+02:00</time>
      </trkpt>
      <trkpt lat="44.10804" lon="1.37055">
        <ele>189</ele>
        <time>2019-04-19T16:19:36+02:00</time>
      </trkpt>
      <trkpt lat="44.1081" lon="1.37066">
        <ele>190</ele>
        <time>2019-04-19T16:19:39+02:00</time>
      </trkpt>
      <trkpt lat="44.10816" lon="1.37075">
        <ele>190</ele>
        <time>2019-04-19T16:19:42+02:00</time>
      </trkpt>
      <trkpt lat="44.10825" lon="1.37083">
        <ele>191</ele>
        <time>2019-04-19T16:19:45+02:00</time>
      </trkpt>
      <trkpt lat="44.10833" lon="1.37091">
        <ele>192</ele>
        <time>2019-04-19T16:19:48+02:00</time>
      </trkpt>
      <trkpt lat="44.10842" lon="1.37101">
        <ele>191</ele>
        <time>2019-04-19T16:19:51+02:00</time>
      </trkpt>
      <trkpt lat="44.10851" lon="1.3711">
        <ele>191</ele>
        <time>2019-04-19T16:19:54+02:00</time>
      </trkpt>
      <trkpt lat="44.10859" lon="1.3712">
        <ele>191</ele>
        <time>2019-04-19T16:19:57+02:00</time>
      </trkpt>
      <trkpt lat="44.10867" lon="1.3713">
        <ele>190</ele>
        <time>2019-04-19T16:20:00+02:00</time>
      </trkpt>
      <trkpt lat="44.10874" lon="1.37139">
        <ele>190</ele>
        <time>2019-04-19T16:20:03+02:00</time>
      </trkpt>
      <trkpt lat="44.10883" lon="1.37148">
        <ele>189</ele>
        <time>2019-04-19T16:20:06+02:00</time>
      </trkpt>
      <trkpt lat="44.10891" lon="1.37156">
        <ele>189</ele>
        <time>2019-04-19T16:20:09+02:00</time>
      </trkpt>
      <trkpt lat="44.10899" lon="1.37163">
        <ele>189</ele>
        <time>2019-04-19T16:20:12+02:00</time>
      </trkpt>
      <trkpt lat="44.10906" lon="1.37173">
        <ele>187</ele>
        <time>2019-04-19T16:20:15+02:00</time>
      </trkpt>
      <trkpt lat="44.10917" lon="1.37183">
        <ele>185</ele>
        <time>2019-04-19T16:20:18+02:00</time>
      </trkpt>
      <trkpt lat="44.10927" lon="1.3719">
        <ele>184</ele>
        <time>2019-04-19T16:20:21+02:00</time>
      </trkpt>
      <trkpt lat="44.10936" lon="1.37196">
        <ele>184</ele>
        <time>2019-04-19T16:20:43+02:00</time>
      </trkpt>
      <trkpt lat="44.10945" lon="1.37203">
        <ele>183</ele>
        <time>2019-04-19T16:20:47+02:00</time>
      </trkpt>
      <trkpt lat="44.10954" lon="1.3721">
        <ele>183</ele>
        <time>2019-04-19T16:20:51+02:00</time>
      </trkpt>
      <trkpt lat="44.10963" lon="1.37216">
        <ele>183</ele>
        <time>2019-04-19T16:20:55+02:00</time>
      </trkpt>
      <trkpt lat="44.10972" lon="1.37223">
        <ele>182</ele>
        <time>2019-04-19T16:20:59+02:00</time>
      </trkpt>
      <trkpt lat="44.10982" lon="1.37229">
        <ele>182</ele>
        <time>2019-04-19T16:21:04+02:00</time>
      </trkpt>
      <trkpt lat="44.1099" lon="1.37237">
        <ele>182</ele>
        <time>2019-04-19T16:21:09+02:00</time>
      </trkpt>
      <trkpt lat="44.10999" lon="1.37246">
        <ele>182</ele>
        <time>2019-04-19T16:21:13+02:00</time>
      </trkpt>
      <trkpt lat="44.11004" lon="1.37257">
        <ele>181</ele>
        <time>2019-04-19T16:21:16+02:00</time>
      </trkpt>
      <trkpt lat="44.11008" lon="1.37272">
        <ele>180</ele>
        <time>2019-04-19T16:21:19+02:00</time>
      </trkpt>
      <trkpt lat="44.11012" lon="1.37287">
        <ele>179</ele>
        <time>2019-04-19T16:21:22+02:00</time>
      </trkpt>
      <trkpt lat="44.11016" lon="1.37302">
        <ele>178</ele>
        <time>2019-04-19T16:21:25+02:00</time>
      </trkpt>
      <trkpt lat="44.11019" lon="1.37317">
        <ele>177</ele>
        <time>2019-04-19T16:21:28+02:00</time>
      </trkpt>
      <trkpt lat="44.11023" lon="1.37332">
        <ele>177</ele>
        <time>2019-04-19T16:21:31+02:00</time>
      </trkpt>
      <trkpt lat="44.11027" lon="1.37349">
        <ele>177</ele>
        <time>2019-04-19T16:21:34+02:00</time>
      </trkpt>
      <trkpt lat="44.1103" lon="1.37361">
        <ele>177</ele>
        <time>2019-04-19T16:21:36+02:00</time>
      </trkpt>
      <trkpt lat="44.11032" lon="1.37373">
        <ele>178</ele>
        <time>2019-04-19T16:21:38+02:00</time>
      </trkpt>
      <trkpt lat="44.11035" lon="1.37386">
        <ele>178</ele>
        <time>2019-04-19T16:21:40+02:00</time>
      </trkpt>
      <trkpt lat="44.11038" lon="1.37399">
        <ele>178</ele>
        <time>2019-04-19T16:21:42+02:00</time>
      </trkpt>
      <trkpt lat="44.11042" lon="1.37411">
        <ele>179</ele>
        <time>2019-04-19T16:21:44+02:00</time>
      </trkpt>
      <trkpt lat="44.11049" lon="1.37421">
        <ele>180</ele>
        <time>2019-04-19T16:21:46+02:00</time>
      </trkpt>
      <trkpt lat="44.1106" lon="1.37431">
        <ele>181</ele>
        <time>2019-04-19T16:21:49+02:00</time>
      </trkpt>
      <trkpt lat="44.11071" lon="1.37441">
        <ele>182</ele>
        <time>2019-04-19T16:21:52+02:00</time>
      </trkpt>
      <trkpt lat="44.11079" lon="1.37447">
        <ele>183</ele>
        <time>2019-04-19T16:21:54+02:00</time>
      </trkpt>
      <trkpt lat="44.11091" lon="1.37457">
        <ele>183</ele>
        <time>2019-04-19T16:21:57+02:00</time>
      </trkpt>
      <trkpt lat="44.11101" lon="1.37466">
        <ele>183</ele>
        <time>2019-04-19T16:22:00+02:00</time>
      </trkpt>
      <trkpt lat="44.11108" lon="1.37476">
        <ele>183</ele>
        <time>2019-04-19T16:22:03+02:00</time>
      </trkpt>
      <trkpt lat="44.11114" lon="1.37487">
        <ele>183</ele>
        <time>2019-04-19T16:22:06+02:00</time>
      </trkpt>
      <trkpt lat="44.11119" lon="1.37499">
        <ele>183</ele>
        <time>2019-04-19T16:22:09+02:00</time>
      </trkpt>
      <trkpt lat="44.11124" lon="1.37513">
        <ele>184</ele>
        <time>2019-04-19T16:22:12+02:00</time>
      </trkpt>
      <trkpt lat="44.11129" lon="1.37527">
        <ele>184</ele>
        <time>2019-04-19T16:22:15+02:00</time>
      </trkpt>
      <trkpt lat="44.11132" lon="1.3754">
        <ele>184</ele>
        <time>2019-04-19T16:22:18+02:00</time>
      </trkpt>
      <trkpt lat="44.11135" lon="1.37552">
        <ele>184</ele>
        <time>2019-04-19T16:22:21+02:00</time>
      </trkpt>
      <trkpt lat="44.1114" lon="1.37566">
        <ele>185</ele>
        <time>2019-04-19T16:22:25+02:00</time>
      </trkpt>
      <trkpt lat="44.11144" lon="1.37581">
        <ele>185</ele>
        <time>2019-04-19T16:22:29+02:00</time>
      </trkpt>
      <trkpt lat="44.11147" lon="1.37594">
        <ele>185</ele>
        <time>2019-04-19T16:22:33+02:00</time>
      </trkpt>
      <trkpt lat="44.11148" lon="1.37607">
        <ele>184</ele>
        <time>2019-04-19T16:22:37+02:00</time>
      </trkpt>
      <trkpt lat="44.11146" lon="1.37622">
        <ele>184</ele>
        <time>2019-04-19T16:22:41+02:00</time>
      </trkpt>
      <trkpt lat="44.11144" lon="1.37637">
        <ele>184</ele>
        <time>2019-04-19T16:22:45+02:00</time>
      </trkpt>
      <trkpt lat="44.11141" lon="1.37649">
        <ele>184</ele>
        <time>2019-04-19T16:22:50+02:00</time>
      </trkpt>
      <trkpt lat="44.11137" lon="1.37662">
        <ele>184</ele>
        <time>2019-04-19T16:22:54+02:00</time>
      </trkpt>
      <trkpt lat="44.11133" lon="1.37677">
        <ele>184</ele>
        <time>2019-04-19T16:22:58+02:00</time>
      </trkpt>
      <trkpt lat="44.1113" lon="1.37692">
        <ele>185</ele>
        <time>2019-04-19T16:23:02+02:00</time>
      </trkpt>
      <trkpt lat="44.11125" lon="1.37707">
        <ele>185</ele>
        <time>2019-04-19T16:23:06+02:00</time>
      </trkpt>
      <trkpt lat="44.11122" lon="1.3772">
        <ele>186</ele>
        <time>2019-04-19T16:23:09+02:00</time>
      </trkpt>
      <trkpt lat="44.11119" lon="1.37733">
        <ele>186</ele>
        <time>2019-04-19T16:23:12+02:00</time>
      </trkpt>
      <trkpt lat="44.11116" lon="1.37749">
        <ele>186</ele>
        <time>2019-04-19T16:23:16+02:00</time>
      </trkpt>
      <trkpt lat="44.11113" lon="1.37761">
        <ele>187</ele>
        <time>2019-04-19T16:23:19+02:00</time>
      </trkpt>
      <trkpt lat="44.11109" lon="1.37777">
        <ele>187</ele>
        <time>2019-04-19T16:23:23+02:00</time>
      </trkpt>
      <trkpt lat="44.11105" lon="1.37789">
        <ele>188</ele>
        <time>2019-04-19T16:23:26+02:00</time>
      </trkpt>
      <trkpt lat="44.111" lon="1.37801">
        <ele>189</ele>
        <time>2019-04-19T16:23:29+02:00</time>
      </trkpt>
      <trkpt lat="44.11097" lon="1.37814">
        <ele>189</ele>
        <time>2019-04-19T16:23:32+02:00</time>
      </trkpt>
      <trkpt lat="44.11095" lon="1.37827">
        <ele>189</ele>
        <time>2019-04-19T16:23:35+02:00</time>
      </trkpt>
      <trkpt lat="44.11094" lon="1.37842">
        <ele>189</ele>
        <time>2019-04-19T16:23:39+02:00</time>
      </trkpt>
      <trkpt lat="44.11092" lon="1.37855">
        <ele>189</ele>
        <time>2019-04-19T16:23:45+02:00</time>
      </trkpt>
      <trkpt lat="44.11091" lon="1.37869">
        <ele>189</ele>
        <time>2019-04-19T16:23:49+02:00</time>
      </trkpt>
      <trkpt lat="44.1109" lon="1.37882">
        <ele>189</ele>
        <time>2019-04-19T16:23:52+02:00</time>
      </trkpt>
      <trkpt lat="44.11097" lon="1.37893">
        <ele>188</ele>
        <time>2019-04-19T16:23:57+02:00</time>
      </trkpt>
      <trkpt lat="44.11107" lon="1.37887">
        <ele>188</ele>
        <time>2019-04-19T16:24:00+02:00</time>
      </trkpt>
      <trkpt lat="44.11114" lon="1.37879">
        <ele>188</ele>
        <time>2019-04-19T16:24:02+02:00</time>
      </trkpt>
      <trkpt lat="44.11122" lon="1.3787">
        <ele>188</ele>
        <time>2019-04-19T16:24:04+02:00</time>
      </trkpt>
      <trkpt lat="44.1113" lon="1.37862">
        <ele>188</ele>
        <time>2019-04-19T16:24:06+02:00</time>
      </trkpt>
      <trkpt lat="44.11138" lon="1.37856">
        <ele>188</ele>
        <time>2019-04-19T16:24:08+02:00</time>
      </trkpt>
      <trkpt lat="44.11149" lon="1.37849">
        <ele>187</ele>
        <time>2019-04-19T16:24:11+02:00</time>
      </trkpt>
      <trkpt lat="44.11158" lon="1.37845">
        <ele>187</ele>
        <time>2019-04-19T16:24:14+02:00</time>
      </trkpt>
      <trkpt lat="44.11167" lon="1.37841">
        <ele>186</ele>
        <time>2019-04-19T16:24:17+02:00</time>
      </trkpt>
      <trkpt lat="44.11177" lon="1.37836">
        <ele>186</ele>
        <time>2019-04-19T16:24:20+02:00</time>
      </trkpt>
      <trkpt lat="44.11187" lon="1.37831">
        <ele>186</ele>
        <time>2019-04-19T16:24:23+02:00</time>
      </trkpt>
      <trkpt lat="44.11198" lon="1.37825">
        <ele>186</ele>
        <time>2019-04-19T16:24:26+02:00</time>
      </trkpt>
      <trkpt lat="44.11206" lon="1.37818">
        <ele>186</ele>
        <time>2019-04-19T16:24:29+02:00</time>
      </trkpt>
      <trkpt lat="44.11214" lon="1.37812">
        <ele>186</ele>
        <time>2019-04-19T16:24:32+02:00</time>
      </trkpt>
      <trkpt lat="44.11223" lon="1.37805">
        <ele>185</ele>
        <time>2019-04-19T16:24:35+02:00</time>
      </trkpt>
      <trkpt lat="44.11233" lon="1.37799">
        <ele>185</ele>
        <time>2019-04-19T16:24:38+02:00</time>
      </trkpt>
      <trkpt lat="44.11242" lon="1.3779">
        <ele>184</ele>
        <time>2019-04-19T16:24:41+02:00</time>
      </trkpt>
      <trkpt lat="44.11252" lon="1.37782">
        <ele>183</ele>
        <time>2019-04-19T16:24:44+02:00</time>
      </trkpt>
      <trkpt lat="44.1126" lon="1.37775">
        <ele>182</ele>
        <time>2019-04-19T16:24:47+02:00</time>
      </trkpt>
      <trkpt lat="44.1127" lon="1.37769">
        <ele>181</ele>
        <time>2019-04-19T16:24:50+02:00</time>
      </trkpt>
      <trkpt lat="44.1128" lon="1.37761">
        <ele>181</ele>
        <time>2019-04-19T16:24:53+02:00</time>
      </trkpt>
      <trkpt lat="44.1129" lon="1.37755">
        <ele>181</ele>
        <time>2019-04-19T16:24:56+02:00</time>
      </trkpt>
      <trkpt lat="44.11301" lon="1.37749">
        <ele>181</ele>
        <time>2019-04-19T16:24:59+02:00</time>
      </trkpt>
      <trkpt lat="44.11312" lon="1.37744">
        <ele>180</ele>
        <time>2019-04-19T16:25:02+02:00</time>
      </trkpt>
      <trkpt lat="44.11323" lon="1.37739">
        <ele>180</ele>
        <time>2019-04-19T16:25:05+02:00</time>
      </trkpt>
      <trkpt lat="44.11335" lon="1.37733">
        <ele>180</ele>
        <time>2019-04-19T16:25:08+02:00</time>
      </trkpt>
      <trkpt lat="44.11345" lon="1.37729">
        <ele>180</ele>
        <time>2019-04-19T16:25:11+02:00</time>
      </trkpt>
      <trkpt lat="44.11354" lon="1.37735">
        <ele>180</ele>
        <time>2019-04-19T16:25:16+02:00</time>
      </trkpt>
      <trkpt lat="44.11364" lon="1.37741">
        <ele>179</ele>
        <time>2019-04-19T16:25:21+02:00</time>
      </trkpt>
      <trkpt lat="44.11377" lon="1.37743">
        <ele>179</ele>
        <time>2019-04-19T16:25:24+02:00</time>
      </trkpt>
      <trkpt lat="44.11387" lon="1.37742">
        <ele>178</ele>
        <time>2019-04-19T16:25:26+02:00</time>
      </trkpt>
      <trkpt lat="44.11399" lon="1.37741">
        <ele>178</ele>
        <time>2019-04-19T16:25:28+02:00</time>
      </trkpt>
      <trkpt lat="44.1141" lon="1.37742">
        <ele>178</ele>
        <time>2019-04-19T16:25:30+02:00</time>
      </trkpt>
      <trkpt lat="44.11421" lon="1.37741">
        <ele>177</ele>
        <time>2019-04-19T16:25:33+02:00</time>
      </trkpt>
      <trkpt lat="44.1143" lon="1.3774">
        <ele>176</ele>
        <time>2019-04-19T16:25:36+02:00</time>
      </trkpt>
      <trkpt lat="44.11441" lon="1.37741">
        <ele>176</ele>
        <time>2019-04-19T16:25:39+02:00</time>
      </trkpt>
      <trkpt lat="44.11451" lon="1.37742">
        <ele>175</ele>
        <time>2019-04-19T16:25:42+02:00</time>
      </trkpt>
      <trkpt lat="44.1146" lon="1.37743">
        <ele>174</ele>
        <time>2019-04-19T16:25:45+02:00</time>
      </trkpt>
      <trkpt lat="44.11473" lon="1.3774">
        <ele>173</ele>
        <time>2019-04-19T16:25:48+02:00</time>
      </trkpt>
      <trkpt lat="44.11483" lon="1.37736">
        <ele>173</ele>
        <time>2019-04-19T16:25:50+02:00</time>
      </trkpt>
      <trkpt lat="44.11494" lon="1.37732">
        <ele>173</ele>
        <time>2019-04-19T16:25:52+02:00</time>
      </trkpt>
      <trkpt lat="44.11506" lon="1.37729">
        <ele>172</ele>
        <time>2019-04-19T16:25:54+02:00</time>
      </trkpt>
      <trkpt lat="44.11517" lon="1.37727">
        <ele>170</ele>
        <time>2019-04-19T16:25:56+02:00</time>
      </trkpt>
      <trkpt lat="44.11528" lon="1.37727">
        <ele>168</ele>
        <time>2019-04-19T16:25:58+02:00</time>
      </trkpt>
      <trkpt lat="44.11538" lon="1.37728">
        <ele>167</ele>
        <time>2019-04-19T16:26:00+02:00</time>
      </trkpt>
      <trkpt lat="44.11552" lon="1.37727">
        <ele>164</ele>
        <time>2019-04-19T16:26:03+02:00</time>
      </trkpt>
      <trkpt lat="44.11562" lon="1.37726">
        <ele>163</ele>
        <time>2019-04-19T16:26:05+02:00</time>
      </trkpt>
      <trkpt lat="44.11572" lon="1.37725">
        <ele>161</ele>
        <time>2019-04-19T16:26:07+02:00</time>
      </trkpt>
      <trkpt lat="44.11581" lon="1.37726">
        <ele>160</ele>
        <time>2019-04-19T16:26:09+02:00</time>
      </trkpt>
      <trkpt lat="44.1159" lon="1.37728">
        <ele>158</ele>
        <time>2019-04-19T16:26:11+02:00</time>
      </trkpt>
      <trkpt lat="44.116" lon="1.37732">
        <ele>156</ele>
        <time>2019-04-19T16:26:13+02:00</time>
      </trkpt>
      <trkpt lat="44.11611" lon="1.37736">
        <ele>155</ele>
        <time>2019-04-19T16:26:15+02:00</time>
      </trkpt>
      <trkpt lat="44.11624" lon="1.37738">
        <ele>153</ele>
        <time>2019-04-19T16:26:18+02:00</time>
      </trkpt>
      <trkpt lat="44.11636" lon="1.37737">
        <ele>152</ele>
        <time>2019-04-19T16:26:21+02:00</time>
      </trkpt>
      <trkpt lat="44.11644" lon="1.37732">
        <ele>152</ele>
        <time>2019-04-19T16:26:25+02:00</time>
      </trkpt>
      <trkpt lat="44.11652" lon="1.37724">
        <ele>152</ele>
        <time>2019-04-19T16:26:44+02:00</time>
      </trkpt>
      <trkpt lat="44.11659" lon="1.37715">
        <ele>152</ele>
        <time>2019-04-19T16:26:46+02:00</time>
      </trkpt>
      <trkpt lat="44.11665" lon="1.37704">
        <ele>153</ele>
        <time>2019-04-19T16:26:48+02:00</time>
      </trkpt>
      <trkpt lat="44.11673" lon="1.37693">
        <ele>152</ele>
        <time>2019-04-19T16:26:50+02:00</time>
      </trkpt>
      <trkpt lat="44.11682" lon="1.37683">
        <ele>152</ele>
        <time>2019-04-19T16:26:52+02:00</time>
      </trkpt>
      <trkpt lat="44.11691" lon="1.37674">
        <ele>151</ele>
        <time>2019-04-19T16:26:54+02:00</time>
      </trkpt>
      <trkpt lat="44.11702" lon="1.37666">
        <ele>149</ele>
        <time>2019-04-19T16:26:57+02:00</time>
      </trkpt>
      <trkpt lat="44.11712" lon="1.37657">
        <ele>147</ele>
        <time>2019-04-19T16:27:00+02:00</time>
      </trkpt>
      <trkpt lat="44.1172" lon="1.37651">
        <ele>146</ele>
        <time>2019-04-19T16:27:03+02:00</time>
      </trkpt>
      <trkpt lat="44.11729" lon="1.37641">
        <ele>145</ele>
        <time>2019-04-19T16:27:18+02:00</time>
      </trkpt>
      <trkpt lat="44.11735" lon="1.37632">
        <ele>145</ele>
        <time>2019-04-19T16:27:21+02:00</time>
      </trkpt>
      <trkpt lat="44.11745" lon="1.3762">
        <ele>144</ele>
        <time>2019-04-19T16:27:24+02:00</time>
      </trkpt>
      <trkpt lat="44.11751" lon="1.37611">
        <ele>144</ele>
        <time>2019-04-19T16:27:26+02:00</time>
      </trkpt>
      <trkpt lat="44.11759" lon="1.37603">
        <ele>144</ele>
        <time>2019-04-19T16:27:29+02:00</time>
      </trkpt>
      <trkpt lat="44.11766" lon="1.37595">
        <ele>144</ele>
        <time>2019-04-19T16:27:34+02:00</time>
      </trkpt>
      <trkpt lat="44.11772" lon="1.37582">
        <ele>144</ele>
        <time>2019-04-19T16:28:33+02:00</time>
      </trkpt>
      <trkpt lat="44.11779" lon="1.37572">
        <ele>145</ele>
        <time>2019-04-19T16:28:37+02:00</time>
      </trkpt>
      <trkpt lat="44.11784" lon="1.37562">
        <ele>145</ele>
        <time>2019-04-19T16:28:41+02:00</time>
      </trkpt>
      <trkpt lat="44.11791" lon="1.37552">
        <ele>146</ele>
        <time>2019-04-19T16:28:45+02:00</time>
      </trkpt>
      <trkpt lat="44.11801" lon="1.37545">
        <ele>145</ele>
        <time>2019-04-19T16:28:49+02:00</time>
      </trkpt>
      <trkpt lat="44.11813" lon="1.37537">
        <ele>144</ele>
        <time>2019-04-19T16:28:52+02:00</time>
      </trkpt>
      <trkpt lat="44.11822" lon="1.3753">
        <ele>143</ele>
        <time>2019-04-19T16:28:54+02:00</time>
      </trkpt>
      <trkpt lat="44.11832" lon="1.37524">
        <ele>142</ele>
        <time>2019-04-19T16:28:56+02:00</time>
      </trkpt>
      <trkpt lat="44.11842" lon="1.37519">
        <ele>141</ele>
        <time>2019-04-19T16:28:58+02:00</time>
      </trkpt>
      <trkpt lat="44.11852" lon="1.37514">
        <ele>140</ele>
        <time>2019-04-19T16:29:00+02:00</time>
      </trkpt>
      <trkpt lat="44.11861" lon="1.37509">
        <ele>139</ele>
        <time>2019-04-19T16:29:02+02:00</time>
      </trkpt>
      <trkpt lat="44.11871" lon="1.37505">
        <ele>137</ele>
        <time>2019-04-19T16:29:05+02:00</time>
      </trkpt>
      <trkpt lat="44.11882" lon="1.37501">
        <ele>136</ele>
        <time>2019-04-19T16:29:09+02:00</time>
      </trkpt>
      <trkpt lat="44.11892" lon="1.37496">
        <ele>134</ele>
        <time>2019-04-19T16:29:11+02:00</time>
      </trkpt>
      <trkpt lat="44.11902" lon="1.37491">
        <ele>133</ele>
        <time>2019-04-19T16:29:13+02:00</time>
      </trkpt>
      <trkpt lat="44.11912" lon="1.37487">
        <ele>131</ele>
        <time>2019-04-19T16:29:15+02:00</time>
      </trkpt>
      <trkpt lat="44.11923" lon="1.37482">
        <ele>130</ele>
        <time>2019-04-19T16:29:18+02:00</time>
      </trkpt>
      <trkpt lat="44.11931" lon="1.37477">
        <ele>130</ele>
        <time>2019-04-19T16:29:24+02:00</time>
      </trkpt>
      <trkpt lat="44.11939" lon="1.37483">
        <ele>130</ele>
        <time>2019-04-19T16:30:01+02:00</time>
      </trkpt>
      <trkpt lat="44.11949" lon="1.3749">
        <ele>129</ele>
        <time>2019-04-19T16:30:05+02:00</time>
      </trkpt>
      <trkpt lat="44.11959" lon="1.37494">
        <ele>128</ele>
        <time>2019-04-19T16:30:09+02:00</time>
      </trkpt>
      <trkpt lat="44.1197" lon="1.37497">
        <ele>128</ele>
        <time>2019-04-19T16:30:14+02:00</time>
      </trkpt>
      <trkpt lat="44.1198" lon="1.375">
        <ele>127</ele>
        <time>2019-04-19T16:30:19+02:00</time>
      </trkpt>
      <trkpt lat="44.1199" lon="1.37504">
        <ele>127</ele>
        <time>2019-04-19T16:30:24+02:00</time>
      </trkpt>
      <trkpt lat="44.12001" lon="1.37504">
        <ele>127</ele>
        <time>2019-04-19T16:30:29+02:00</time>
      </trkpt>
      <trkpt lat="44.12011" lon="1.37508">
        <ele>128</ele>
        <time>2019-04-19T16:30:32+02:00</time>
      </trkpt>
      <trkpt lat="44.12022" lon="1.37512">
        <ele>128</ele>
        <time>2019-04-19T16:30:35+02:00</time>
      </trkpt>
      <trkpt lat="44.12033" lon="1.37516">
        <ele>129</ele>
        <time>2019-04-19T16:30:38+02:00</time>
      </trkpt>
      <trkpt lat="44.12043" lon="1.37514">
        <ele>129</ele>
        <time>2019-04-19T16:30:41+02:00</time>
      </trkpt>
      <trkpt lat="44.12053" lon="1.3751">
        <ele>129</ele>
        <time>2019-04-19T16:30:45+02:00</time>
      </trkpt>
      <trkpt lat="44.12064" lon="1.37507">
        <ele>129</ele>
        <time>2019-04-19T16:30:53+02:00</time>
      </trkpt>
      <trkpt lat="44.1207" lon="1.37517">
        <ele>129</ele>
        <time>2019-04-19T16:30:58+02:00</time>
      </trkpt>
      <trkpt lat="44.12075" lon="1.3753">
        <ele>129</ele>
        <time>2019-04-19T16:31:05+02:00</time>
      </trkpt>
      <trkpt lat="44.12081" lon="1.37541">
        <ele>129</ele>
        <time>2019-04-19T16:31:11+02:00</time>
      </trkpt>
      <trkpt lat="44.12086" lon="1.37552">
        <ele>130</ele>
        <time>2019-04-19T16:31:15+02:00</time>
      </trkpt>
      <trkpt lat="44.12092" lon="1.37565">
        <ele>130</ele>
        <time>2019-04-19T16:31:20+02:00</time>
      </trkpt>
      <trkpt lat="44.12098" lon="1.37577">
        <ele>131</ele>
        <time>2019-04-19T16:31:24+02:00</time>
      </trkpt>
      <trkpt lat="44.12107" lon="1.37587">
        <ele>131</ele>
        <time>2019-04-19T16:31:28+02:00</time>
      </trkpt>
      <trkpt lat="44.12117" lon="1.37596">
        <ele>132</ele>
        <time>2019-04-19T16:31:32+02:00</time>
      </trkpt>
      <trkpt lat="44.12126" lon="1.37604">
        <ele>133</ele>
        <time>2019-04-19T16:31:37+02:00</time>
      </trkpt>
      <trkpt lat="44.12134" lon="1.37612">
        <ele>133</ele>
        <time>2019-04-19T16:31:41+02:00</time>
      </trkpt>
      <trkpt lat="44.12143" lon="1.37622">
        <ele>133</ele>
        <time>2019-04-19T16:31:45+02:00</time>
      </trkpt>
      <trkpt lat="44.12151" lon="1.37631">
        <ele>133</ele>
        <time>2019-04-19T16:31:49+02:00</time>
      </trkpt>
      <trkpt lat="44.12159" lon="1.37637">
        <ele>134</ele>
        <time>2019-04-19T16:31:53+02:00</time>
      </trkpt>
      <trkpt lat="44.12168" lon="1.37643">
        <ele>134</ele>
        <time>2019-04-19T16:31:57+02:00</time>
      </trkpt>
      <trkpt lat="44.12176" lon="1.37648">
        <ele>134</ele>
        <time>2019-04-19T16:32:01+02:00</time>
      </trkpt>
      <trkpt lat="44.12185" lon="1.37655">
        <ele>135</ele>
        <time>2019-04-19T16:32:05+02:00</time>
      </trkpt>
      <trkpt lat="44.12194" lon="1.37662">
        <ele>135</ele>
        <time>2019-04-19T16:32:09+02:00</time>
      </trkpt>
      <trkpt lat="44.12203" lon="1.37667">
        <ele>135</ele>
        <time>2019-04-19T16:32:13+02:00</time>
      </trkpt>
      <trkpt lat="44.12213" lon="1.37674">
        <ele>136</ele>
        <time>2019-04-19T16:32:17+02:00</time>
      </trkpt>
      <trkpt lat="44.12222" lon="1.37683">
        <ele>137</ele>
        <time>2019-04-19T16:32:21+02:00</time>
      </trkpt>
      <trkpt lat="44.12229" lon="1.37695">
        <ele>137</ele>
        <time>2019-04-19T16:32:26+02:00</time>
      </trkpt>
      <trkpt lat="44.12233" lon="1.3771">
        <ele>137</ele>
        <time>2019-04-19T16:32:29+02:00</time>
      </trkpt>
      <trkpt lat="44.12238" lon="1.37724">
        <ele>137</ele>
        <time>2019-04-19T16:32:32+02:00</time>
      </trkpt>
      <trkpt lat="44.12243" lon="1.37737">
        <ele>137</ele>
        <time>2019-04-19T16:32:36+02:00</time>
      </trkpt>
      <trkpt lat="44.12251" lon="1.37749">
        <ele>137</ele>
        <time>2019-04-19T16:32:40+02:00</time>
      </trkpt>
      <trkpt lat="44.12261" lon="1.37758">
        <ele>139</ele>
        <time>2019-04-19T16:32:44+02:00</time>
      </trkpt>
      <trkpt lat="44.12267" lon="1.37767">
        <ele>139</ele>
        <time>2019-04-19T16:32:49+02:00</time>
      </trkpt>
      <trkpt lat="44.12276" lon="1.37774">
        <ele>141</ele>
        <time>2019-04-19T16:32:55+02:00</time>
      </trkpt>
      <trkpt lat="44.12283" lon="1.37784">
        <ele>141</ele>
        <time>2019-04-19T16:33:11+02:00</time>
      </trkpt>
      <trkpt lat="44.12292" lon="1.37791">
        <ele>142</ele>
        <time>2019-04-19T16:33:16+02:00</time>
      </trkpt>
      <trkpt lat="44.12301" lon="1.37795">
        <ele>143</ele>
        <time>2019-04-19T16:33:21+02:00</time>
      </trkpt>
      <trkpt lat="44.1231" lon="1.37801">
        <ele>144</ele>
        <time>2019-04-19T16:33:24+02:00</time>
      </trkpt>
      <trkpt lat="44.12321" lon="1.37805">
        <ele>145</ele>
        <time>2019-04-19T16:33:27+02:00</time>
      </trkpt>
      <trkpt lat="44.1233" lon="1.37808">
        <ele>145</ele>
        <time>2019-04-19T16:33:30+02:00</time>
      </trkpt>
      <trkpt lat="44.12341" lon="1.37815">
        <ele>147</ele>
        <time>2019-04-19T16:33:34+02:00</time>
      </trkpt>
      <trkpt lat="44.12349" lon="1.37823">
        <ele>148</ele>
        <time>2019-04-19T16:33:37+02:00</time>
      </trkpt>
      <trkpt lat="44.12357" lon="1.37834">
        <ele>149</ele>
        <time>2019-04-19T16:33:41+02:00</time>
      </trkpt>
      <trkpt lat="44.12366" lon="1.37844">
        <ele>150</ele>
        <time>2019-04-19T16:33:44+02:00</time>
      </trkpt>
      <trkpt lat="44.12373" lon="1.37853">
        <ele>150</ele>
        <time>2019-04-19T16:33:47+02:00</time>
      </trkpt>
      <trkpt lat="44.12381" lon="1.37861">
        <ele>151</ele>
        <time>2019-04-19T16:33:50+02:00</time>
      </trkpt>
      <trkpt lat="44.12389" lon="1.3787">
        <ele>150</ele>
        <time>2019-04-19T16:33:53+02:00</time>
      </trkpt>
      <trkpt lat="44.12399" lon="1.37879">
        <ele>150</ele>
        <time>2019-04-19T16:33:57+02:00</time>
      </trkpt>
      <trkpt lat="44.12408" lon="1.37884">
        <ele>149</ele>
        <time>2019-04-19T16:34:00+02:00</time>
      </trkpt>
      <trkpt lat="44.12418" lon="1.3789">
        <ele>148</ele>
        <time>2019-04-19T16:34:04+02:00</time>
      </trkpt>
      <trkpt lat="44.12427" lon="1.37895">
        <ele>148</ele>
        <time>2019-04-19T16:34:08+02:00</time>
      </trkpt>
      <trkpt lat="44.12436" lon="1.37895">
        <ele>148</ele>
        <time>2019-04-19T16:34:13+02:00</time>
      </trkpt>
      <trkpt lat="44.12445" lon="1.37901">
        <ele>147</ele>
        <time>2019-04-19T16:34:18+02:00</time>
      </trkpt>
      <trkpt lat="44.12443" lon="1.37915">
        <ele>143</ele>
        <time>2019-04-19T16:36:55+02:00</time>
      </trkpt>
      <trkpt lat="44.12445" lon="1.37928">
        <ele>143</ele>
        <time>2019-04-19T16:37:07+02:00</time>
      </trkpt>
      <trkpt lat="44.12441" lon="1.3794">
        <ele>142</ele>
        <time>2019-04-19T16:37:22+02:00</time>
      </trkpt>
      <trkpt lat="44.1244" lon="1.37955">
        <ele>142</ele>
        <time>2019-04-19T16:37:35+02:00</time>
      </trkpt>
      <trkpt lat="44.12444" lon="1.37968">
        <ele>142</ele>
        <time>2019-04-19T16:37:40+02:00</time>
      </trkpt>
      <trkpt lat="44.1245" lon="1.37979">
        <ele>142</ele>
        <time>2019-04-19T16:37:46+02:00</time>
      </trkpt>
      <trkpt lat="44.12457" lon="1.37988">
        <ele>142</ele>
        <time>2019-04-19T16:37:53+02:00</time>
      </trkpt>
      <trkpt lat="44.1246" lon="1.38003">
        <ele>142</ele>
        <time>2019-04-19T16:37:58+02:00</time>
      </trkpt>
      <trkpt lat="44.12456" lon="1.38017">
        <ele>143</ele>
        <time>2019-04-19T16:38:04+02:00</time>
      </trkpt>
      <trkpt lat="44.12452" lon="1.38029">
        <ele>144</ele>
        <time>2019-04-19T16:38:10+02:00</time>
      </trkpt>
      <trkpt lat="44.12455" lon="1.38042">
        <ele>145</ele>
        <time>2019-04-19T16:38:16+02:00</time>
      </trkpt>
      <trkpt lat="44.12461" lon="1.38052">
        <ele>147</ele>
        <time>2019-04-19T16:38:23+02:00</time>
      </trkpt>
      <trkpt lat="44.1247" lon="1.38057">
        <ele>148</ele>
        <time>2019-04-19T16:38:30+02:00</time>
      </trkpt>
      <trkpt lat="44.1248" lon="1.3806">
        <ele>149</ele>
        <time>2019-04-19T16:38:37+02:00</time>
      </trkpt>
      <trkpt lat="44.1249" lon="1.38062">
        <ele>150</ele>
        <time>2019-04-19T16:38:44+02:00</time>
      </trkpt>
      <trkpt lat="44.12499" lon="1.38067">
        <ele>151</ele>
        <time>2019-04-19T16:38:52+02:00</time>
      </trkpt>
      <trkpt lat="44.12507" lon="1.38073">
        <ele>152</ele>
        <time>2019-04-19T16:38:59+02:00</time>
      </trkpt>
      <trkpt lat="44.12517" lon="1.38076">
        <ele>154</ele>
        <time>2019-04-19T16:39:09+02:00</time>
      </trkpt>
      <trkpt lat="44.12525" lon="1.38082">
        <ele>155</ele>
        <time>2019-04-19T16:39:16+02:00</time>
      </trkpt>
      <trkpt lat="44.12534" lon="1.38086">
        <ele>156</ele>
        <time>2019-04-19T16:39:24+02:00</time>
      </trkpt>
      <trkpt lat="44.12543" lon="1.38089">
        <ele>157</ele>
        <time>2019-04-19T16:39:33+02:00</time>
      </trkpt>
      <trkpt lat="44.12552" lon="1.38092">
        <ele>158</ele>
        <time>2019-04-19T16:39:43+02:00</time>
      </trkpt>
      <trkpt lat="44.12561" lon="1.38097">
        <ele>160</ele>
        <time>2019-04-19T16:39:53+02:00</time>
      </trkpt>
      <trkpt lat="44.1257" lon="1.381">
        <ele>161</ele>
        <time>2019-04-19T16:40:02+02:00</time>
      </trkpt>
      <trkpt lat="44.12578" lon="1.38108">
        <ele>163</ele>
        <time>2019-04-19T16:40:11+02:00</time>
      </trkpt>
      <trkpt lat="44.12587" lon="1.38113">
        <ele>164</ele>
        <time>2019-04-19T16:40:20+02:00</time>
      </trkpt>
      <trkpt lat="44.12593" lon="1.38124">
        <ele>165</ele>
        <time>2019-04-19T16:40:57+02:00</time>
      </trkpt>
      <trkpt lat="44.12597" lon="1.38136">
        <ele>166</ele>
        <time>2019-04-19T16:41:05+02:00</time>
      </trkpt>
      <trkpt lat="44.12598" lon="1.38149">
        <ele>167</ele>
        <time>2019-04-19T16:41:13+02:00</time>
      </trkpt>
      <trkpt lat="44.12592" lon="1.38159">
        <ele>169</ele>
        <time>2019-04-19T16:41:20+02:00</time>
      </trkpt>
      <trkpt lat="44.12588" lon="1.38172">
        <ele>171</ele>
        <time>2019-04-19T16:41:27+02:00</time>
      </trkpt>
      <trkpt lat="44.12588" lon="1.38185">
        <ele>171</ele>
        <time>2019-04-19T16:41:34+02:00</time>
      </trkpt>
      <trkpt lat="44.12586" lon="1.38197">
        <ele>172</ele>
        <time>2019-04-19T16:41:41+02:00</time>
      </trkpt>
      <trkpt lat="44.12585" lon="1.3821">
        <ele>173</ele>
        <time>2019-04-19T16:41:47+02:00</time>
      </trkpt>
      <trkpt lat="44.12591" lon="1.38222">
        <ele>173</ele>
        <time>2019-04-19T16:41:56+02:00</time>
      </trkpt>
      <trkpt lat="44.12585" lon="1.38231">
        <ele>174</ele>
        <time>2019-04-19T16:42:33+02:00</time>
      </trkpt>
      <trkpt lat="44.12583" lon="1.38245">
        <ele>175</ele>
        <time>2019-04-19T16:42:41+02:00</time>
      </trkpt>
      <trkpt lat="44.12582" lon="1.38259">
        <ele>175</ele>
        <time>2019-04-19T16:42:46+02:00</time>
      </trkpt>
      <trkpt lat="44.12582" lon="1.38272">
        <ele>176</ele>
        <time>2019-04-19T16:42:54+02:00</time>
      </trkpt>
      <trkpt lat="44.12583" lon="1.38285">
        <ele>177</ele>
        <time>2019-04-19T16:43:01+02:00</time>
      </trkpt>
      <trkpt lat="44.12582" lon="1.38299">
        <ele>178</ele>
        <time>2019-04-19T16:43:21+02:00</time>
      </trkpt>
      <trkpt lat="44.12579" lon="1.38312">
        <ele>179</ele>
        <time>2019-04-19T16:43:26+02:00</time>
      </trkpt>
      <trkpt lat="44.12576" lon="1.38325">
        <ele>179</ele>
        <time>2019-04-19T16:43:30+02:00</time>
      </trkpt>
      <trkpt lat="44.12573" lon="1.38341">
        <ele>180</ele>
        <time>2019-04-19T16:43:34+02:00</time>
      </trkpt>
      <trkpt lat="44.12572" lon="1.38355">
        <ele>180</ele>
        <time>2019-04-19T16:43:38+02:00</time>
      </trkpt>
      <trkpt lat="44.12571" lon="1.3837">
        <ele>181</ele>
        <time>2019-04-19T16:43:42+02:00</time>
      </trkpt>
      <trkpt lat="44.1257" lon="1.38383">
        <ele>181</ele>
        <time>2019-04-19T16:43:45+02:00</time>
      </trkpt>
      <trkpt lat="44.12568" lon="1.38397">
        <ele>182</ele>
        <time>2019-04-19T16:43:48+02:00</time>
      </trkpt>
      <trkpt lat="44.12568" lon="1.3841">
        <ele>182</ele>
        <time>2019-04-19T16:43:51+02:00</time>
      </trkpt>
      <trkpt lat="44.12566" lon="1.38425">
        <ele>183</ele>
        <time>2019-04-19T16:43:55+02:00</time>
      </trkpt>
      <trkpt lat="44.12565" lon="1.3844">
        <ele>183</ele>
        <time>2019-04-19T16:43:59+02:00</time>
      </trkpt>
      <trkpt lat="44.12563" lon="1.38456">
        <ele>184</ele>
        <time>2019-04-19T16:44:03+02:00</time>
      </trkpt>
      <trkpt lat="44.12561" lon="1.38469">
        <ele>184</ele>
        <time>2019-04-19T16:44:06+02:00</time>
      </trkpt>
      <trkpt lat="44.12559" lon="1.38485">
        <ele>185</ele>
        <time>2019-04-19T16:44:10+02:00</time>
      </trkpt>
      <trkpt lat="44.12556" lon="1.38497">
        <ele>185</ele>
        <time>2019-04-19T16:44:13+02:00</time>
      </trkpt>
      <trkpt lat="44.12554" lon="1.38509">
        <ele>186</ele>
        <time>2019-04-19T16:44:16+02:00</time>
      </trkpt>
      <trkpt lat="44.12551" lon="1.38525">
        <ele>187</ele>
        <time>2019-04-19T16:44:20+02:00</time>
      </trkpt>
      <trkpt lat="44.12548" lon="1.3854">
        <ele>188</ele>
        <time>2019-04-19T16:44:24+02:00</time>
      </trkpt>
      <trkpt lat="44.12547" lon="1.38553">
        <ele>190</ele>
        <time>2019-04-19T16:44:28+02:00</time>
      </trkpt>
      <trkpt lat="44.12548" lon="1.38566">
        <ele>191</ele>
        <time>2019-04-19T16:44:32+02:00</time>
      </trkpt>
      <trkpt lat="44.12554" lon="1.38577">
        <ele>193</ele>
        <time>2019-04-19T16:44:36+02:00</time>
      </trkpt>
      <trkpt lat="44.12558" lon="1.38588">
        <ele>194</ele>
        <time>2019-04-19T16:44:40+02:00</time>
      </trkpt>
      <trkpt lat="44.12563" lon="1.386">
        <ele>195</ele>
        <time>2019-04-19T16:44:44+02:00</time>
      </trkpt>
      <trkpt lat="44.12567" lon="1.38614">
        <ele>196</ele>
        <time>2019-04-19T16:44:49+02:00</time>
      </trkpt>
      <trkpt lat="44.12569" lon="1.38627">
        <ele>197</ele>
        <time>2019-04-19T16:44:53+02:00</time>
      </trkpt>
      <trkpt lat="44.1257" lon="1.38642">
        <ele>197</ele>
        <time>2019-04-19T16:44:58+02:00</time>
      </trkpt>
      <trkpt lat="44.1257" lon="1.38657">
        <ele>198</ele>
        <time>2019-04-19T16:45:02+02:00</time>
      </trkpt>
      <trkpt lat="44.1257" lon="1.38673">
        <ele>199</ele>
        <time>2019-04-19T16:45:06+02:00</time>
      </trkpt>
      <trkpt lat="44.12571" lon="1.38687">
        <ele>199</ele>
        <time>2019-04-19T16:45:10+02:00</time>
      </trkpt>
      <trkpt lat="44.12572" lon="1.38701">
        <ele>199</ele>
        <time>2019-04-19T16:45:14+02:00</time>
      </trkpt>
      <trkpt lat="44.12572" lon="1.38715">
        <ele>199</ele>
        <time>2019-04-19T16:45:20+02:00</time>
      </trkpt>
      <trkpt lat="44.12569" lon="1.38727">
        <ele>199</ele>
        <time>2019-04-19T16:45:26+02:00</time>
      </trkpt>
      <trkpt lat="44.12559" lon="1.38732">
        <ele>199</ele>
        <time>2019-04-19T16:45:30+02:00</time>
      </trkpt>
      <trkpt lat="44.1255" lon="1.38736">
        <ele>199</ele>
        <time>2019-04-19T16:45:34+02:00</time>
      </trkpt>
      <trkpt lat="44.12538" lon="1.38741">
        <ele>199</ele>
        <time>2019-04-19T16:45:38+02:00</time>
      </trkpt>
      <trkpt lat="44.12528" lon="1.38747">
        <ele>199</ele>
        <time>2019-04-19T16:45:41+02:00</time>
      </trkpt>
      <trkpt lat="44.12518" lon="1.38752">
        <ele>199</ele>
        <time>2019-04-19T16:45:44+02:00</time>
      </trkpt>
      <trkpt lat="44.12507" lon="1.38756">
        <ele>199</ele>
        <time>2019-04-19T16:45:47+02:00</time>
      </trkpt>
      <trkpt lat="44.12494" lon="1.38759">
        <ele>199</ele>
        <time>2019-04-19T16:45:50+02:00</time>
      </trkpt>
      <trkpt lat="44.12481" lon="1.38761">
        <ele>198</ele>
        <time>2019-04-19T16:45:53+02:00</time>
      </trkpt>
      <trkpt lat="44.12472" lon="1.38763">
        <ele>198</ele>
        <time>2019-04-19T16:45:55+02:00</time>
      </trkpt>
      <trkpt lat="44.12462" lon="1.38765">
        <ele>198</ele>
        <time>2019-04-19T16:45:57+02:00</time>
      </trkpt>
      <trkpt lat="44.12453" lon="1.38766">
        <ele>197</ele>
        <time>2019-04-19T16:45:59+02:00</time>
      </trkpt>
      <trkpt lat="44.12444" lon="1.38768">
        <ele>197</ele>
        <time>2019-04-19T16:46:01+02:00</time>
      </trkpt>
      <trkpt lat="44.12433" lon="1.3877">
        <ele>197</ele>
        <time>2019-04-19T16:46:03+02:00</time>
      </trkpt>
      <trkpt lat="44.12423" lon="1.38771">
        <ele>196</ele>
        <time>2019-04-19T16:46:05+02:00</time>
      </trkpt>
      <trkpt lat="44.12413" lon="1.38773">
        <ele>196</ele>
        <time>2019-04-19T16:46:07+02:00</time>
      </trkpt>
      <trkpt lat="44.12403" lon="1.38774">
        <ele>195</ele>
        <time>2019-04-19T16:46:09+02:00</time>
      </trkpt>
      <trkpt lat="44.12393" lon="1.38776">
        <ele>195</ele>
        <time>2019-04-19T16:46:11+02:00</time>
      </trkpt>
      <trkpt lat="44.12383" lon="1.38777">
        <ele>195</ele>
        <time>2019-04-19T16:46:13+02:00</time>
      </trkpt>
      <trkpt lat="44.12374" lon="1.38778">
        <ele>194</ele>
        <time>2019-04-19T16:46:15+02:00</time>
      </trkpt>
      <trkpt lat="44.12361" lon="1.38781">
        <ele>194</ele>
        <time>2019-04-19T16:46:18+02:00</time>
      </trkpt>
      <trkpt lat="44.12352" lon="1.38783">
        <ele>193</ele>
        <time>2019-04-19T16:46:20+02:00</time>
      </trkpt>
      <trkpt lat="44.1234" lon="1.38788">
        <ele>193</ele>
        <time>2019-04-19T16:46:23+02:00</time>
      </trkpt>
      <trkpt lat="44.1234" lon="1.38803">
        <ele>193</ele>
        <time>2019-04-19T16:46:26+02:00</time>
      </trkpt>
      <trkpt lat="44.12349" lon="1.38813">
        <ele>194</ele>
        <time>2019-04-19T16:46:29+02:00</time>
      </trkpt>
      <trkpt lat="44.12355" lon="1.38823">
        <ele>195</ele>
        <time>2019-04-19T16:46:32+02:00</time>
      </trkpt>
      <trkpt lat="44.1236" lon="1.38833">
        <ele>196</ele>
        <time>2019-04-19T16:46:35+02:00</time>
      </trkpt>
      <trkpt lat="44.12367" lon="1.38843">
        <ele>195</ele>
        <time>2019-04-19T16:46:39+02:00</time>
      </trkpt>
      <trkpt lat="44.12372" lon="1.38854">
        <ele>195</ele>
        <time>2019-04-19T16:47:05+02:00</time>
      </trkpt>
      <trkpt lat="44.12375" lon="1.38865">
        <ele>195</ele>
        <time>2019-04-19T16:47:11+02:00</time>
      </trkpt>
      <trkpt lat="44.1238" lon="1.38876">
        <ele>195</ele>
        <time>2019-04-19T16:47:15+02:00</time>
      </trkpt>
      <trkpt lat="44.12385" lon="1.38889">
        <ele>195</ele>
        <time>2019-04-19T16:48:00+02:00</time>
      </trkpt>
      <trkpt lat="44.12391" lon="1.38901">
        <ele>195</ele>
        <time>2019-04-19T16:48:05+02:00</time>
      </trkpt>
      <trkpt lat="44.12396" lon="1.38915">
        <ele>195</ele>
        <time>2019-04-19T16:48:09+02:00</time>
      </trkpt>
      <trkpt lat="44.12398" lon="1.3893">
        <ele>195</ele>
        <time>2019-04-19T16:48:14+02:00</time>
      </trkpt>
      <trkpt lat="44.12398" lon="1.38944">
        <ele>195</ele>
        <time>2019-04-19T16:48:19+02:00</time>
      </trkpt>
      <trkpt lat="44.12397" lon="1.38956">
        <ele>194</ele>
        <time>2019-04-19T16:48:26+02:00</time>
      </trkpt>
      <trkpt lat="44.12398" lon="1.38969">
        <ele>194</ele>
        <time>2019-04-19T16:48:31+02:00</time>
      </trkpt>
      <trkpt lat="44.12396" lon="1.38982">
        <ele>193</ele>
        <time>2019-04-19T16:48:35+02:00</time>
      </trkpt>
      <trkpt lat="44.12394" lon="1.38997">
        <ele>192</ele>
        <time>2019-04-19T16:48:40+02:00</time>
      </trkpt>
      <trkpt lat="44.12391" lon="1.39008">
        <ele>192</ele>
        <time>2019-04-19T16:48:44+02:00</time>
      </trkpt>
      <trkpt lat="44.12388" lon="1.39024">
        <ele>192</ele>
        <time>2019-04-19T16:48:49+02:00</time>
      </trkpt>
      <trkpt lat="44.12387" lon="1.39036">
        <ele>192</ele>
        <time>2019-04-19T16:48:54+02:00</time>
      </trkpt>
      <trkpt lat="44.12385" lon="1.3905">
        <ele>192</ele>
        <time>2019-04-19T16:48:59+02:00</time>
      </trkpt>
      <trkpt lat="44.12381" lon="1.39065">
        <ele>192</ele>
        <time>2019-04-19T16:49:03+02:00</time>
      </trkpt>
      <trkpt lat="44.12378" lon="1.3908">
        <ele>193</ele>
        <time>2019-04-19T16:49:07+02:00</time>
      </trkpt>
      <trkpt lat="44.12375" lon="1.39093">
        <ele>193</ele>
        <time>2019-04-19T16:49:10+02:00</time>
      </trkpt>
      <trkpt lat="44.12372" lon="1.39107">
        <ele>193</ele>
        <time>2019-04-19T16:49:13+02:00</time>
      </trkpt>
      <trkpt lat="44.12369" lon="1.39121">
        <ele>193</ele>
        <time>2019-04-19T16:49:16+02:00</time>
      </trkpt>
      <trkpt lat="44.12367" lon="1.39136">
        <ele>193</ele>
        <time>2019-04-19T16:49:19+02:00</time>
      </trkpt>
      <trkpt lat="44.12365" lon="1.39151">
        <ele>193</ele>
        <time>2019-04-19T16:49:22+02:00</time>
      </trkpt>
      <trkpt lat="44.12362" lon="1.39165">
        <ele>193</ele>
        <time>2019-04-19T16:49:25+02:00</time>
      </trkpt>
      <trkpt lat="44.1236" lon="1.39179">
        <ele>193</ele>
        <time>2019-04-19T16:49:28+02:00</time>
      </trkpt>
      <trkpt lat="44.12357" lon="1.39194">
        <ele>193</ele>
        <time>2019-04-19T16:49:31+02:00</time>
      </trkpt>
      <trkpt lat="44.12355" lon="1.39211">
        <ele>192</ele>
        <time>2019-04-19T16:49:34+02:00</time>
      </trkpt>
      <trkpt lat="44.12352" lon="1.39228">
        <ele>192</ele>
        <time>2019-04-19T16:49:37+02:00</time>
      </trkpt>
      <trkpt lat="44.1235" lon="1.39246">
        <ele>191</ele>
        <time>2019-04-19T16:49:40+02:00</time>
      </trkpt>
      <trkpt lat="44.12348" lon="1.39258">
        <ele>191</ele>
        <time>2019-04-19T16:49:42+02:00</time>
      </trkpt>
      <trkpt lat="44.12345" lon="1.39271">
        <ele>190</ele>
        <time>2019-04-19T16:49:44+02:00</time>
      </trkpt>
      <trkpt lat="44.12343" lon="1.39284">
        <ele>190</ele>
        <time>2019-04-19T16:49:46+02:00</time>
      </trkpt>
      <trkpt lat="44.12341" lon="1.39297">
        <ele>189</ele>
        <time>2019-04-19T16:49:48+02:00</time>
      </trkpt>
      <trkpt lat="44.12339" lon="1.39313">
        <ele>189</ele>
        <time>2019-04-19T16:49:51+02:00</time>
      </trkpt>
      <trkpt lat="44.12338" lon="1.39326">
        <ele>188</ele>
        <time>2019-04-19T16:49:54+02:00</time>
      </trkpt>
      <trkpt lat="44.12334" lon="1.3934">
        <ele>187</ele>
        <time>2019-04-19T16:49:57+02:00</time>
      </trkpt>
      <trkpt lat="44.1233" lon="1.39351">
        <ele>185</ele>
        <time>2019-04-19T16:49:59+02:00</time>
      </trkpt>
      <trkpt lat="44.12325" lon="1.39364">
        <ele>183</ele>
        <time>2019-04-19T16:50:01+02:00</time>
      </trkpt>
      <trkpt lat="44.12322" lon="1.39379">
        <ele>181</ele>
        <time>2019-04-19T16:50:03+02:00</time>
      </trkpt>
      <trkpt lat="44.12321" lon="1.39395">
        <ele>179</ele>
        <time>2019-04-19T16:50:05+02:00</time>
      </trkpt>
      <trkpt lat="44.1232" lon="1.3941">
        <ele>178</ele>
        <time>2019-04-19T16:50:07+02:00</time>
      </trkpt>
      <trkpt lat="44.12319" lon="1.39425">
        <ele>176</ele>
        <time>2019-04-19T16:50:09+02:00</time>
      </trkpt>
      <trkpt lat="44.12318" lon="1.39439">
        <ele>176</ele>
        <time>2019-04-19T16:50:11+02:00</time>
      </trkpt>
      <trkpt lat="44.12315" lon="1.39456">
        <ele>174</ele>
        <time>2019-04-19T16:50:14+02:00</time>
      </trkpt>
      <trkpt lat="44.12309" lon="1.39469">
        <ele>173</ele>
        <time>2019-04-19T16:50:16+02:00</time>
      </trkpt>
      <trkpt lat="44.12303" lon="1.39482">
        <ele>172</ele>
        <time>2019-04-19T16:50:18+02:00</time>
      </trkpt>
      <trkpt lat="44.12297" lon="1.39494">
        <ele>171</ele>
        <time>2019-04-19T16:50:20+02:00</time>
      </trkpt>
      <trkpt lat="44.12287" lon="1.39505">
        <ele>170</ele>
        <time>2019-04-19T16:50:23+02:00</time>
      </trkpt>
      <trkpt lat="44.12279" lon="1.39514">
        <ele>169</ele>
        <time>2019-04-19T16:50:25+02:00</time>
      </trkpt>
      <trkpt lat="44.12272" lon="1.39524">
        <ele>168</ele>
        <time>2019-04-19T16:50:27+02:00</time>
      </trkpt>
      <trkpt lat="44.12264" lon="1.39535">
        <ele>168</ele>
        <time>2019-04-19T16:50:29+02:00</time>
      </trkpt>
      <trkpt lat="44.12257" lon="1.39546">
        <ele>167</ele>
        <time>2019-04-19T16:50:31+02:00</time>
      </trkpt>
      <trkpt lat="44.12251" lon="1.39556">
        <ele>167</ele>
        <time>2019-04-19T16:50:33+02:00</time>
      </trkpt>
      <trkpt lat="44.12245" lon="1.39567">
        <ele>166</ele>
        <time>2019-04-19T16:50:35+02:00</time>
      </trkpt>
      <trkpt lat="44.1224" lon="1.39579">
        <ele>165</ele>
        <time>2019-04-19T16:50:37+02:00</time>
      </trkpt>
      <trkpt lat="44.12236" lon="1.39591">
        <ele>164</ele>
        <time>2019-04-19T16:50:39+02:00</time>
      </trkpt>
      <trkpt lat="44.12234" lon="1.39608">
        <ele>162</ele>
        <time>2019-04-19T16:50:42+02:00</time>
      </trkpt>
      <trkpt lat="44.12233" lon="1.3962">
        <ele>161</ele>
        <time>2019-04-19T16:50:45+02:00</time>
      </trkpt>
      <trkpt lat="44.12227" lon="1.39635">
        <ele>158</ele>
        <time>2019-04-19T16:50:49+02:00</time>
      </trkpt>
      <trkpt lat="44.12217" lon="1.39639">
        <ele>156</ele>
        <time>2019-04-19T16:50:52+02:00</time>
      </trkpt>
      <trkpt lat="44.12207" lon="1.39641">
        <ele>155</ele>
        <time>2019-04-19T16:50:54+02:00</time>
      </trkpt>
      <trkpt lat="44.12198" lon="1.39642">
        <ele>153</ele>
        <time>2019-04-19T16:50:56+02:00</time>
      </trkpt>
      <trkpt lat="44.12187" lon="1.39638">
        <ele>152</ele>
        <time>2019-04-19T16:50:59+02:00</time>
      </trkpt>
      <trkpt lat="44.12178" lon="1.39626">
        <ele>151</ele>
        <time>2019-04-19T16:51:02+02:00</time>
      </trkpt>
      <trkpt lat="44.12169" lon="1.39618">
        <ele>150</ele>
        <time>2019-04-19T16:51:05+02:00</time>
      </trkpt>
      <trkpt lat="44.12158" lon="1.39609">
        <ele>150</ele>
        <time>2019-04-19T16:51:08+02:00</time>
      </trkpt>
      <trkpt lat="44.12148" lon="1.39601">
        <ele>150</ele>
        <time>2019-04-19T16:51:11+02:00</time>
      </trkpt>
      <trkpt lat="44.12137" lon="1.39597">
        <ele>149</ele>
        <time>2019-04-19T16:51:14+02:00</time>
      </trkpt>
      <trkpt lat="44.12124" lon="1.39596">
        <ele>148</ele>
        <time>2019-04-19T16:51:16+02:00</time>
      </trkpt>
      <trkpt lat="44.12124" lon="1.39591">
        <ele>148</ele>
        <time>2019-04-19T16:52:13+02:00</time>
      </trkpt>
      <trkpt lat="44.12119" lon="1.3958">
        <ele>147</ele>
        <time>2019-04-19T16:53:12+02:00</time>
      </trkpt>
      <trkpt lat="44.1211" lon="1.39578">
        <ele>146</ele>
        <time>2019-04-19T16:53:17+02:00</time>
      </trkpt>
      <trkpt lat="44.121" lon="1.39581">
        <ele>145</ele>
        <time>2019-04-19T16:53:22+02:00</time>
      </trkpt>
      <trkpt lat="44.1209" lon="1.39582">
        <ele>144</ele>
        <time>2019-04-19T16:53:27+02:00</time>
      </trkpt>
      <trkpt lat="44.12081" lon="1.39581">
        <ele>143</ele>
        <time>2019-04-19T16:53:31+02:00</time>
      </trkpt>
      <trkpt lat="44.12072" lon="1.39579">
        <ele>144</ele>
        <time>2019-04-19T16:53:35+02:00</time>
      </trkpt>
      <trkpt lat="44.12062" lon="1.39571">
        <ele>145</ele>
        <time>2019-04-19T16:54:46+02:00</time>
      </trkpt>
      <trkpt lat="44.12052" lon="1.39566">
        <ele>146</ele>
        <time>2019-04-19T16:54:51+02:00</time>
      </trkpt>
      <trkpt lat="44.12041" lon="1.39566">
        <ele>147</ele>
        <time>2019-04-19T16:54:57+02:00</time>
      </trkpt>
      <trkpt lat="44.12031" lon="1.3957">
        <ele>148</ele>
        <time>2019-04-19T16:55:03+02:00</time>
      </trkpt>
      <trkpt lat="44.12021" lon="1.39572">
        <ele>148</ele>
        <time>2019-04-19T16:55:08+02:00</time>
      </trkpt>
      <trkpt lat="44.12012" lon="1.39573">
        <ele>149</ele>
        <time>2019-04-19T16:55:12+02:00</time>
      </trkpt>
      <trkpt lat="44.12001" lon="1.39572">
        <ele>150</ele>
        <time>2019-04-19T16:55:17+02:00</time>
      </trkpt>
      <trkpt lat="44.1199" lon="1.39569">
        <ele>152</ele>
        <time>2019-04-19T16:55:22+02:00</time>
      </trkpt>
      <trkpt lat="44.11981" lon="1.39564">
        <ele>154</ele>
        <time>2019-04-19T16:55:27+02:00</time>
      </trkpt>
      <trkpt lat="44.11972" lon="1.3956">
        <ele>155</ele>
        <time>2019-04-19T16:55:35+02:00</time>
      </trkpt>
      <trkpt lat="44.11963" lon="1.39565">
        <ele>156</ele>
        <time>2019-04-19T16:55:55+02:00</time>
      </trkpt>
      <trkpt lat="44.11954" lon="1.39572">
        <ele>157</ele>
        <time>2019-04-19T16:56:00+02:00</time>
      </trkpt>
      <trkpt lat="44.11945" lon="1.39579">
        <ele>158</ele>
        <time>2019-04-19T16:56:06+02:00</time>
      </trkpt>
      <trkpt lat="44.11937" lon="1.39588">
        <ele>159</ele>
        <time>2019-04-19T16:56:26+02:00</time>
      </trkpt>
      <trkpt lat="44.11931" lon="1.39598">
        <ele>159</ele>
        <time>2019-04-19T16:56:36+02:00</time>
      </trkpt>
      <trkpt lat="44.11927" lon="1.3961">
        <ele>159</ele>
        <time>2019-04-19T16:57:12+02:00</time>
      </trkpt>
      <trkpt lat="44.1192" lon="1.39618">
        <ele>159</ele>
        <time>2019-04-19T16:57:18+02:00</time>
      </trkpt>
      <trkpt lat="44.11913" lon="1.39625">
        <ele>159</ele>
        <time>2019-04-19T16:57:22+02:00</time>
      </trkpt>
      <trkpt lat="44.11905" lon="1.39635">
        <ele>159</ele>
        <time>2019-04-19T16:57:27+02:00</time>
      </trkpt>
      <trkpt lat="44.11896" lon="1.39641">
        <ele>160</ele>
        <time>2019-04-19T16:57:33+02:00</time>
      </trkpt>
      <trkpt lat="44.11887" lon="1.39646">
        <ele>160</ele>
        <time>2019-04-19T16:57:40+02:00</time>
      </trkpt>
      <trkpt lat="44.11877" lon="1.39642">
        <ele>162</ele>
        <time>2019-04-19T16:57:47+02:00</time>
      </trkpt>
      <trkpt lat="44.11869" lon="1.39635">
        <ele>163</ele>
        <time>2019-04-19T16:57:56+02:00</time>
      </trkpt>
      <trkpt lat="44.11862" lon="1.39627">
        <ele>164</ele>
        <time>2019-04-19T16:58:04+02:00</time>
      </trkpt>
      <trkpt lat="44.11854" lon="1.39621">
        <ele>166</ele>
        <time>2019-04-19T16:58:11+02:00</time>
      </trkpt>
      <trkpt lat="44.11846" lon="1.39613">
        <ele>167</ele>
        <time>2019-04-19T16:58:19+02:00</time>
      </trkpt>
      <trkpt lat="44.11839" lon="1.39605">
        <ele>169</ele>
        <time>2019-04-19T16:58:26+02:00</time>
      </trkpt>
      <trkpt lat="44.11831" lon="1.39599">
        <ele>171</ele>
        <time>2019-04-19T16:58:36+02:00</time>
      </trkpt>
      <trkpt lat="44.11822" lon="1.39592">
        <ele>174</ele>
        <time>2019-04-19T16:58:44+02:00</time>
      </trkpt>
      <trkpt lat="44.11813" lon="1.39588">
        <ele>177</ele>
        <time>2019-04-19T16:58:54+02:00</time>
      </trkpt>
      <trkpt lat="44.11803" lon="1.39587">
        <ele>179</ele>
        <time>2019-04-19T16:59:04+02:00</time>
      </trkpt>
      <trkpt lat="44.11795" lon="1.39597">
        <ele>180</ele>
        <time>2019-04-19T16:59:12+02:00</time>
      </trkpt>
      <trkpt lat="44.1179" lon="1.39608">
        <ele>180</ele>
        <time>2019-04-19T16:59:19+02:00</time>
      </trkpt>
      <trkpt lat="44.11787" lon="1.39621">
        <ele>180</ele>
        <time>2019-04-19T16:59:28+02:00</time>
      </trkpt>
      <trkpt lat="44.11784" lon="1.39634">
        <ele>180</ele>
        <time>2019-04-19T16:59:37+02:00</time>
      </trkpt>
      <trkpt lat="44.11778" lon="1.39644">
        <ele>180</ele>
        <time>2019-04-19T16:59:43+02:00</time>
      </trkpt>
      <trkpt lat="44.11772" lon="1.39656">
        <ele>181</ele>
        <time>2019-04-19T16:59:50+02:00</time>
      </trkpt>
      <trkpt lat="44.11766" lon="1.39666">
        <ele>182</ele>
        <time>2019-04-19T16:59:56+02:00</time>
      </trkpt>
      <trkpt lat="44.11762" lon="1.39679">
        <ele>181</ele>
        <time>2019-04-19T17:00:01+02:00</time>
      </trkpt>
      <trkpt lat="44.11755" lon="1.39688">
        <ele>182</ele>
        <time>2019-04-19T17:00:06+02:00</time>
      </trkpt>
      <trkpt lat="44.11748" lon="1.397">
        <ele>181</ele>
        <time>2019-04-19T17:00:13+02:00</time>
      </trkpt>
      <trkpt lat="44.11742" lon="1.3971">
        <ele>181</ele>
        <time>2019-04-19T17:00:18+02:00</time>
      </trkpt>
      <trkpt lat="44.11735" lon="1.39722">
        <ele>181</ele>
        <time>2019-04-19T17:00:24+02:00</time>
      </trkpt>
      <trkpt lat="44.11729" lon="1.39734">
        <ele>180</ele>
        <time>2019-04-19T17:00:29+02:00</time>
      </trkpt>
      <trkpt lat="44.11723" lon="1.39743">
        <ele>180</ele>
        <time>2019-04-19T17:00:35+02:00</time>
      </trkpt>
      <trkpt lat="44.11712" lon="1.39747">
        <ele>182</ele>
        <time>2019-04-19T17:00:41+02:00</time>
      </trkpt>
      <trkpt lat="44.11704" lon="1.39752">
        <ele>183</ele>
        <time>2019-04-19T17:00:47+02:00</time>
      </trkpt>
      <trkpt lat="44.11698" lon="1.39763">
        <ele>184</ele>
        <time>2019-04-19T17:00:52+02:00</time>
      </trkpt>
      <trkpt lat="44.11695" lon="1.39776">
        <ele>184</ele>
        <time>2019-04-19T17:00:58+02:00</time>
      </trkpt>
      <trkpt lat="44.1169" lon="1.39788">
        <ele>184</ele>
        <time>2019-04-19T17:01:03+02:00</time>
      </trkpt>
      <trkpt lat="44.11687" lon="1.39802">
        <ele>184</ele>
        <time>2019-04-19T17:01:10+02:00</time>
      </trkpt>
      <trkpt lat="44.11685" lon="1.39814">
        <ele>184</ele>
        <time>2019-04-19T17:01:14+02:00</time>
      </trkpt>
      <trkpt lat="44.11681" lon="1.39826">
        <ele>183</ele>
        <time>2019-04-19T17:01:20+02:00</time>
      </trkpt>
      <trkpt lat="44.11678" lon="1.39839">
        <ele>183</ele>
        <time>2019-04-19T17:01:27+02:00</time>
      </trkpt>
      <trkpt lat="44.11675" lon="1.39853">
        <ele>184</ele>
        <time>2019-04-19T17:01:35+02:00</time>
      </trkpt>
      <trkpt lat="44.11671" lon="1.39864">
        <ele>185</ele>
        <time>2019-04-19T17:01:41+02:00</time>
      </trkpt>
      <trkpt lat="44.11667" lon="1.39876">
        <ele>185</ele>
        <time>2019-04-19T17:01:48+02:00</time>
      </trkpt>
      <trkpt lat="44.11665" lon="1.39885">
        <ele>185</ele>
        <time>2019-04-19T17:05:54+02:00</time>
      </trkpt>
      <trkpt lat="44.11677" lon="1.39894">
        <ele>184</ele>
        <time>2019-04-19T17:05:57+02:00</time>
      </trkpt>
      <trkpt lat="44.11691" lon="1.39909">
        <ele>184</ele>
        <time>2019-04-19T17:06:00+02:00</time>
      </trkpt>
      <trkpt lat="44.11699" lon="1.39925">
        <ele>184</ele>
      </trkpt>
      <trkpt lat="44.11711" lon="1.39947">
        <ele>183</ele>
      </trkpt>
      <trkpt lat="44.11724" lon="1.3997">
        <ele>183</ele>
      </trkpt>
      <trkpt lat="44.11747" lon="1.4">
        <ele>185</ele>
      </trkpt>
      <trkpt lat="44.11761" lon="1.40023">
        <ele>184</ele>
      </trkpt>
      <trkpt lat="44.11774" lon="1.4005">
        <ele>183</ele>
      </trkpt>
      <trkpt lat="44.11782" lon="1.40072">
        <ele>183</ele>
      </trkpt>
      <trkpt lat="44.11786" lon="1.40094">
        <ele>183</ele>
      </trkpt>
      <trkpt lat="44.11789" lon="1.40109">
        <ele>182</ele>
      </trkpt>
      <trkpt lat="44.11801" lon="1.40102">
        <ele>185</ele>
      </trkpt>
      <trkpt lat="44.11808" lon="1.40102">
        <ele>186</ele>
      </trkpt>
      <trkpt lat="44.11813" lon="1.4011">
        <ele>186</ele>
      </trkpt>
      <trkpt lat="44.11818" lon="1.40122">
        <ele>187</ele>
      </trkpt>
      <trkpt lat="44.11825" lon="1.40131">
        <ele>187</ele>
        <time>2019-04-19T17:06:04+02:00</time>
      </trkpt>
    </trkseg>
  </trk>
</gpx>